<?xml version="1.0" encoding="UTF-8" standalone="no" ?>
<gpx xmlns="http://www.topografix.com/GPX/1/1" xmlns:xsi="http://www.w3.org/2001/XMLSchema-instance" xsi:schemaLocation="http://www.topografix.com/GPX/1/1 http://www.topografix.com/GPX/1/1/gpx.xsd" version="1.1" creator="VisuGPX - https://www.visugpx.com">
  <metadata>
    <name>Clermont-Ferrand - Massat - Pau par François</name>
    <desc><![CDATA[Trajet effectué par François sur la "Diagonale du vide" en aout 2020]]></desc>
  </metadata>
  <trk>
    <name><![CDATA[route102]]></name>
    <trkseg>
      <trkpt lat="45.8886" lon="3.59349">
        <ele>727.5</ele>
        <time>2020-08-15T04:14:49Z</time>
      </trkpt>
      <trkpt lat="45.88795" lon="3.5923">
        <ele>728.6</ele>
        <time>2020-08-15T04:15:58Z</time>
      </trkpt>
      <trkpt lat="45.8873" lon="3.59128">
        <ele>729</ele>
        <time>2020-08-15T04:17:06Z</time>
      </trkpt>
      <trkpt lat="45.88648" lon="3.5906">
        <ele>727.8</ele>
        <time>2020-08-15T04:17:26Z</time>
      </trkpt>
      <trkpt lat="45.88552" lon="3.59058">
        <ele>726.3</ele>
        <time>2020-08-15T04:17:41Z</time>
      </trkpt>
      <trkpt lat="45.88511" lon="3.59176">
        <ele>725.2</ele>
        <time>2020-08-15T04:18:15Z</time>
      </trkpt>
      <trkpt lat="45.88421" lon="3.59204">
        <ele>722.3</ele>
        <time>2020-08-15T04:18:30Z</time>
      </trkpt>
      <trkpt lat="45.884" lon="3.59367">
        <ele>716.9</ele>
        <time>2020-08-15T04:19:12Z</time>
      </trkpt>
      <trkpt lat="45.88337" lon="3.59476">
        <ele>712.1</ele>
        <time>2020-08-15T04:19:32Z</time>
      </trkpt>
      <trkpt lat="45.88257" lon="3.59536">
        <ele>690.9</ele>
        <time>2020-08-15T04:19:52Z</time>
      </trkpt>
      <trkpt lat="45.88298" lon="3.59684">
        <ele>688.1</ele>
        <time>2020-08-15T04:20:07Z</time>
      </trkpt>
      <trkpt lat="45.8832" lon="3.59815">
        <ele>685.6</ele>
        <time>2020-08-15T04:20:27Z</time>
      </trkpt>
      <trkpt lat="45.88295" lon="3.59988">
        <ele>668.9</ele>
        <time>2020-08-15T04:21:11Z</time>
      </trkpt>
      <trkpt lat="45.88185" lon="3.59994">
        <ele>667.6</ele>
        <time>2020-08-15T04:21:31Z</time>
      </trkpt>
      <trkpt lat="45.88081" lon="3.59964">
        <ele>664.5</ele>
        <time>2020-08-15T04:21:51Z</time>
      </trkpt>
      <trkpt lat="45.87982" lon="3.59954">
        <ele>662.6</ele>
        <time>2020-08-15T04:22:06Z</time>
      </trkpt>
      <trkpt lat="45.87871" lon="3.59981">
        <ele>657.9</ele>
        <time>2020-08-15T04:22:21Z</time>
      </trkpt>
      <trkpt lat="45.87758" lon="3.59964">
        <ele>650.1</ele>
        <time>2020-08-15T04:22:36Z</time>
      </trkpt>
      <trkpt lat="45.87646" lon="3.59907">
        <ele>644.8</ele>
        <time>2020-08-15T04:22:51Z</time>
      </trkpt>
      <trkpt lat="45.87547" lon="3.59891">
        <ele>640.7</ele>
        <time>2020-08-15T04:23:06Z</time>
      </trkpt>
      <trkpt lat="45.87431" lon="3.5988">
        <ele>638.3</ele>
        <time>2020-08-15T04:23:26Z</time>
      </trkpt>
      <trkpt lat="45.87346" lon="3.59949">
        <ele>636.6</ele>
        <time>2020-08-15T04:23:41Z</time>
      </trkpt>
      <trkpt lat="45.87308" lon="3.60067">
        <ele>634.7</ele>
        <time>2020-08-15T04:23:56Z</time>
      </trkpt>
      <trkpt lat="45.87264" lon="3.60179">
        <ele>632.7</ele>
        <time>2020-08-15T04:24:11Z</time>
      </trkpt>
      <trkpt lat="45.87188" lon="3.60252">
        <ele>629.3</ele>
        <time>2020-08-15T04:24:26Z</time>
      </trkpt>
      <trkpt lat="45.871" lon="3.6021">
        <ele>630.9</ele>
        <time>2020-08-15T04:25:02Z</time>
      </trkpt>
      <trkpt lat="45.87005" lon="3.60217">
        <ele>630.1</ele>
        <time>2020-08-15T04:25:22Z</time>
      </trkpt>
      <trkpt lat="45.86943" lon="3.60339">
        <ele>623.1</ele>
        <time>2020-08-15T04:27:29Z</time>
      </trkpt>
      <trkpt lat="45.86954" lon="3.6049">
        <ele>616.5</ele>
        <time>2020-08-15T04:28:23Z</time>
      </trkpt>
      <trkpt lat="45.8686" lon="3.60441">
        <ele>605.6</ele>
        <time>2020-08-15T04:29:10Z</time>
      </trkpt>
      <trkpt lat="45.86784" lon="3.60506">
        <ele>601.3</ele>
        <time>2020-08-15T04:29:45Z</time>
      </trkpt>
      <trkpt lat="45.86834" lon="3.60645">
        <ele>600.1</ele>
        <time>2020-08-15T04:30:10Z</time>
      </trkpt>
      <trkpt lat="45.86883" lon="3.60769">
        <ele>599</ele>
        <time>2020-08-15T04:30:35Z</time>
      </trkpt>
      <trkpt lat="45.86909" lon="3.60909">
        <ele>598</ele>
        <time>2020-08-15T04:31:04Z</time>
      </trkpt>
      <trkpt lat="45.86901" lon="3.61051">
        <ele>596.7</ele>
        <time>2020-08-15T04:31:39Z</time>
      </trkpt>
      <trkpt lat="45.8684" lon="3.61146">
        <ele>595.7</ele>
        <time>2020-08-15T04:32:28Z</time>
      </trkpt>
      <trkpt lat="45.86764" lon="3.61225">
        <ele>595.8</ele>
        <time>2020-08-15T04:33:16Z</time>
      </trkpt>
      <trkpt lat="45.867" lon="3.61332">
        <ele>597</ele>
        <time>2020-08-15T04:34:10Z</time>
      </trkpt>
      <trkpt lat="45.8662" lon="3.614">
        <ele>599.8</ele>
        <time>2020-08-15T04:35:07Z</time>
      </trkpt>
      <trkpt lat="45.86547" lon="3.61487">
        <ele>602.4</ele>
        <time>2020-08-15T04:36:01Z</time>
      </trkpt>
      <trkpt lat="45.86457" lon="3.61487">
        <ele>605.3</ele>
        <time>2020-08-15T04:36:59Z</time>
      </trkpt>
      <trkpt lat="45.86365" lon="3.61472">
        <ele>608.6</ele>
        <time>2020-08-15T04:37:35Z</time>
      </trkpt>
      <trkpt lat="45.8633" lon="3.61594">
        <ele>612.8</ele>
        <time>2020-08-15T04:38:16Z</time>
      </trkpt>
      <trkpt lat="45.86263" lon="3.61679">
        <ele>617</ele>
        <time>2020-08-15T04:39:04Z</time>
      </trkpt>
      <trkpt lat="45.86211" lon="3.61782">
        <ele>620.4</ele>
        <time>2020-08-15T04:39:58Z</time>
      </trkpt>
      <trkpt lat="45.86147" lon="3.61871">
        <ele>623</ele>
        <time>2020-08-15T04:40:48Z</time>
      </trkpt>
      <trkpt lat="45.86073" lon="3.61945">
        <ele>625.6</ele>
        <time>2020-08-15T04:41:33Z</time>
      </trkpt>
      <trkpt lat="45.86004" lon="3.62042">
        <ele>630.4</ele>
        <time>2020-08-15T04:42:36Z</time>
      </trkpt>
      <trkpt lat="45.8595" lon="3.62154">
        <ele>635.9</ele>
        <time>2020-08-15T04:43:49Z</time>
      </trkpt>
      <trkpt lat="45.85893" lon="3.62308">
        <ele>648.6</ele>
        <time>2020-08-15T04:45:47Z</time>
      </trkpt>
      <trkpt lat="45.85779" lon="3.62347">
        <ele>649.6</ele>
        <time>2020-08-15T04:45:57Z</time>
      </trkpt>
      <trkpt lat="45.85692" lon="3.62402">
        <ele>649.4</ele>
        <time>2020-08-15T04:46:07Z</time>
      </trkpt>
      <trkpt lat="45.85641" lon="3.62537">
        <ele>650.1</ele>
        <time>2020-08-15T04:46:27Z</time>
      </trkpt>
      <trkpt lat="45.85661" lon="3.62666">
        <ele>654.9</ele>
        <time>2020-08-15T04:47:33Z</time>
      </trkpt>
      <trkpt lat="45.857" lon="3.62791">
        <ele>663.6</ele>
        <time>2020-08-15T04:48:47Z</time>
      </trkpt>
      <trkpt lat="45.85733" lon="3.62917">
        <ele>674</ele>
        <time>2020-08-15T04:50:06Z</time>
      </trkpt>
      <trkpt lat="45.85733" lon="3.63049">
        <ele>682.2</ele>
        <time>2020-08-15T04:51:21Z</time>
      </trkpt>
      <trkpt lat="45.85749" lon="3.63182">
        <ele>688.4</ele>
        <time>2020-08-15T04:52:28Z</time>
      </trkpt>
      <trkpt lat="45.85775" lon="3.63319">
        <ele>696.4</ele>
        <time>2020-08-15T04:53:35Z</time>
      </trkpt>
      <trkpt lat="45.85797" lon="3.63448">
        <ele>702</ele>
        <time>2020-08-15T04:54:26Z</time>
      </trkpt>
      <trkpt lat="45.85727" lon="3.63536">
        <ele>707.3</ele>
        <time>2020-08-15T04:55:01Z</time>
      </trkpt>
      <trkpt lat="45.8562" lon="3.6356">
        <ele>709</ele>
        <time>2020-08-15T04:55:31Z</time>
      </trkpt>
      <trkpt lat="45.85527" lon="3.63507">
        <ele>709.4</ele>
        <time>2020-08-15T04:56:01Z</time>
      </trkpt>
      <trkpt lat="45.85433" lon="3.63517">
        <ele>710</ele>
        <time>2020-08-15T04:56:31Z</time>
      </trkpt>
      <trkpt lat="45.85332" lon="3.635">
        <ele>711.8</ele>
        <time>2020-08-15T04:57:20Z</time>
      </trkpt>
      <trkpt lat="45.85247" lon="3.63451">
        <ele>711.9</ele>
        <time>2020-08-15T04:57:45Z</time>
      </trkpt>
      <trkpt lat="45.85188" lon="3.63331">
        <ele>712.5</ele>
        <time>2020-08-15T04:58:15Z</time>
      </trkpt>
      <trkpt lat="45.85088" lon="3.63279">
        <ele>713</ele>
        <time>2020-08-15T04:58:39Z</time>
      </trkpt>
      <trkpt lat="45.85007" lon="3.63372">
        <ele>713.4</ele>
        <time>2020-08-15T04:59:09Z</time>
      </trkpt>
      <trkpt lat="45.84931" lon="3.63464">
        <ele>714.3</ele>
        <time>2020-08-15T04:59:39Z</time>
      </trkpt>
      <trkpt lat="45.84833" lon="3.63512">
        <ele>715.4</ele>
        <time>2020-08-15T05:00:09Z</time>
      </trkpt>
      <trkpt lat="45.8477" lon="3.63632">
        <ele>716.4</ele>
        <time>2020-08-15T05:00:39Z</time>
      </trkpt>
      <trkpt lat="45.84669" lon="3.63677">
        <ele>718.5</ele>
        <time>2020-08-15T05:01:09Z</time>
      </trkpt>
      <trkpt lat="45.84592" lon="3.63603">
        <ele>719.4</ele>
        <time>2020-08-15T05:01:34Z</time>
      </trkpt>
      <trkpt lat="45.84503" lon="3.63503">
        <ele>720.5</ele>
        <time>2020-08-15T05:02:09Z</time>
      </trkpt>
      <trkpt lat="45.84412" lon="3.6339">
        <ele>721.5</ele>
        <time>2020-08-15T05:02:29Z</time>
      </trkpt>
      <trkpt lat="45.8436" lon="3.635">
        <ele>722.1</ele>
        <time>2020-08-15T05:02:54Z</time>
      </trkpt>
      <trkpt lat="45.84279" lon="3.63557">
        <ele>728.4</ele>
        <time>2020-08-15T05:03:44Z</time>
      </trkpt>
      <trkpt lat="45.84186" lon="3.63558">
        <ele>733.1</ele>
        <time>2020-08-15T05:04:24Z</time>
      </trkpt>
      <trkpt lat="45.84094" lon="3.63526">
        <ele>736.5</ele>
        <time>2020-08-15T05:05:04Z</time>
      </trkpt>
      <trkpt lat="45.83993" lon="3.635">
        <ele>738.7</ele>
        <time>2020-08-15T05:05:39Z</time>
      </trkpt>
      <trkpt lat="45.839" lon="3.63507">
        <ele>740.3</ele>
        <time>2020-08-15T05:06:09Z</time>
      </trkpt>
      <trkpt lat="45.83808" lon="3.63503">
        <ele>742.6</ele>
        <time>2020-08-15T05:06:34Z</time>
      </trkpt>
      <trkpt lat="45.83726" lon="3.63583">
        <ele>743.6</ele>
        <time>2020-08-15T05:07:04Z</time>
      </trkpt>
      <trkpt lat="45.83644" lon="3.63638">
        <ele>745</ele>
        <time>2020-08-15T05:07:29Z</time>
      </trkpt>
      <trkpt lat="45.83537" lon="3.63645">
        <ele>744.8</ele>
        <time>2020-08-15T05:07:49Z</time>
      </trkpt>
      <trkpt lat="45.83438" lon="3.63685">
        <ele>744.5</ele>
        <time>2020-08-15T05:08:04Z</time>
      </trkpt>
      <trkpt lat="45.83338" lon="3.63716">
        <ele>743.9</ele>
        <time>2020-08-15T05:08:19Z</time>
      </trkpt>
      <trkpt lat="45.83236" lon="3.63622">
        <ele>742.5</ele>
        <time>2020-08-15T05:08:39Z</time>
      </trkpt>
      <trkpt lat="45.83198" lon="3.63491">
        <ele>740.9</ele>
        <time>2020-08-15T05:08:54Z</time>
      </trkpt>
      <trkpt lat="45.83149" lon="3.63346">
        <ele>738.4</ele>
        <time>2020-08-15T05:09:09Z</time>
      </trkpt>
      <trkpt lat="45.83055" lon="3.63226">
        <ele>735.8</ele>
        <time>2020-08-15T05:09:24Z</time>
      </trkpt>
      <trkpt lat="45.82969" lon="3.63162">
        <ele>735.1</ele>
        <time>2020-08-15T05:09:34Z</time>
      </trkpt>
      <trkpt lat="45.82878" lon="3.63187">
        <ele>733.6</ele>
        <time>2020-08-15T05:09:44Z</time>
      </trkpt>
      <trkpt lat="45.82779" lon="3.63196">
        <ele>729.6</ele>
        <time>2020-08-15T05:09:54Z</time>
      </trkpt>
      <trkpt lat="45.82686" lon="3.63169">
        <ele>724.6</ele>
        <time>2020-08-15T05:10:04Z</time>
      </trkpt>
      <trkpt lat="45.82617" lon="3.63068">
        <ele>719.8</ele>
        <time>2020-08-15T05:10:14Z</time>
      </trkpt>
      <trkpt lat="45.82554" lon="3.62955">
        <ele>716.3</ele>
        <time>2020-08-15T05:10:24Z</time>
      </trkpt>
      <trkpt lat="45.8246" lon="3.62913">
        <ele>711.9</ele>
        <time>2020-08-15T05:10:34Z</time>
      </trkpt>
      <trkpt lat="45.82347" lon="3.62994">
        <ele>701.8</ele>
        <time>2020-08-15T05:10:49Z</time>
      </trkpt>
      <trkpt lat="45.82231" lon="3.62932">
        <ele>697.1</ele>
        <time>2020-08-15T05:11:04Z</time>
      </trkpt>
      <trkpt lat="45.82268" lon="3.62812">
        <ele>694.1</ele>
        <time>2020-08-15T05:11:14Z</time>
      </trkpt>
      <trkpt lat="45.82348" lon="3.62698">
        <ele>679</ele>
        <time>2020-08-15T05:11:29Z</time>
      </trkpt>
      <trkpt lat="45.82336" lon="3.62559">
        <ele>666</ele>
        <time>2020-08-15T05:11:54Z</time>
      </trkpt>
      <trkpt lat="45.82226" lon="3.6248">
        <ele>658.5</ele>
        <time>2020-08-15T05:12:09Z</time>
      </trkpt>
      <trkpt lat="45.82131" lon="3.62369">
        <ele>651.8</ele>
        <time>2020-08-15T05:12:24Z</time>
      </trkpt>
      <trkpt lat="45.82049" lon="3.6231">
        <ele>648.6</ele>
        <time>2020-08-15T05:12:34Z</time>
      </trkpt>
      <trkpt lat="45.81972" lon="3.62207">
        <ele>641.8</ele>
        <time>2020-08-15T05:12:44Z</time>
      </trkpt>
      <trkpt lat="45.81882" lon="3.62156">
        <ele>635.4</ele>
        <time>2020-08-15T05:12:54Z</time>
      </trkpt>
      <trkpt lat="45.81792" lon="3.6208">
        <ele>632.8</ele>
        <time>2020-08-15T05:13:19Z</time>
      </trkpt>
      <trkpt lat="45.81687" lon="3.61969">
        <ele>623.2</ele>
        <time>2020-08-15T05:13:44Z</time>
      </trkpt>
      <trkpt lat="45.81615" lon="3.61805">
        <ele>619.4</ele>
        <time>2020-08-15T05:13:59Z</time>
      </trkpt>
      <trkpt lat="45.81567" lon="3.61688">
        <ele>617.5</ele>
        <time>2020-08-15T05:14:09Z</time>
      </trkpt>
      <trkpt lat="45.81508" lon="3.61582">
        <ele>616</ele>
        <time>2020-08-15T05:14:19Z</time>
      </trkpt>
      <trkpt lat="45.81425" lon="3.61496">
        <ele>611</ele>
        <time>2020-08-15T05:14:39Z</time>
      </trkpt>
      <trkpt lat="45.81368" lon="3.61381">
        <ele>604.9</ele>
        <time>2020-08-15T05:14:59Z</time>
      </trkpt>
      <trkpt lat="45.81275" lon="3.6129">
        <ele>601.6</ele>
        <time>2020-08-15T05:15:14Z</time>
      </trkpt>
      <trkpt lat="45.81157" lon="3.61183">
        <ele>599.4</ele>
        <time>2020-08-15T05:15:29Z</time>
      </trkpt>
      <trkpt lat="45.81069" lon="3.61083">
        <ele>595</ele>
        <time>2020-08-15T05:15:44Z</time>
      </trkpt>
      <trkpt lat="45.80991" lon="3.61008">
        <ele>589.2</ele>
        <time>2020-08-15T05:15:54Z</time>
      </trkpt>
      <trkpt lat="45.80877" lon="3.60978">
        <ele>579.8</ele>
        <time>2020-08-15T05:16:09Z</time>
      </trkpt>
      <trkpt lat="45.80792" lon="3.60889">
        <ele>574.6</ele>
        <time>2020-08-15T05:16:24Z</time>
      </trkpt>
      <trkpt lat="45.8071" lon="3.60817">
        <ele>572.9</ele>
        <time>2020-08-15T05:16:39Z</time>
      </trkpt>
      <trkpt lat="45.80629" lon="3.60755">
        <ele>572.4</ele>
        <time>2020-08-15T05:16:59Z</time>
      </trkpt>
      <trkpt lat="45.80526" lon="3.60713">
        <ele>566.9</ele>
        <time>2020-08-15T05:17:29Z</time>
      </trkpt>
      <trkpt lat="45.80429" lon="3.60704">
        <ele>563.9</ele>
        <time>2020-08-15T05:17:54Z</time>
      </trkpt>
      <trkpt lat="45.80344" lon="3.60624">
        <ele>562.8</ele>
        <time>2020-08-15T05:18:34Z</time>
      </trkpt>
      <trkpt lat="45.8026" lon="3.60675">
        <ele>564</ele>
        <time>2020-08-15T05:19:22Z</time>
      </trkpt>
      <trkpt lat="45.80174" lon="3.60733">
        <ele>566</ele>
        <time>2020-08-15T05:20:17Z</time>
      </trkpt>
      <trkpt lat="45.80077" lon="3.60709">
        <ele>568.1</ele>
        <time>2020-08-15T05:21:11Z</time>
      </trkpt>
      <trkpt lat="45.80068" lon="3.6084">
        <ele>574.1</ele>
        <time>2020-08-15T05:22:16Z</time>
      </trkpt>
      <trkpt lat="45.80034" lon="3.60974">
        <ele>576.8</ele>
        <time>2020-08-15T05:22:51Z</time>
      </trkpt>
      <trkpt lat="45.79959" lon="3.60884">
        <ele>580.2</ele>
        <time>2020-08-15T05:23:46Z</time>
      </trkpt>
      <trkpt lat="45.79881" lon="3.60806">
        <ele>583.2</ele>
        <time>2020-08-15T05:24:39Z</time>
      </trkpt>
      <trkpt lat="45.79786" lon="3.60776">
        <ele>586</ele>
        <time>2020-08-15T05:25:41Z</time>
      </trkpt>
      <trkpt lat="45.79695" lon="3.6071">
        <ele>588.4</ele>
        <time>2020-08-15T05:26:36Z</time>
      </trkpt>
      <trkpt lat="45.79595" lon="3.6071">
        <ele>590.5</ele>
        <time>2020-08-15T05:27:06Z</time>
      </trkpt>
      <trkpt lat="45.79484" lon="3.60721">
        <ele>592.8</ele>
        <time>2020-08-15T05:27:52Z</time>
      </trkpt>
      <trkpt lat="45.79376" lon="3.60639">
        <ele>592.9</ele>
        <time>2020-08-15T05:28:07Z</time>
      </trkpt>
      <trkpt lat="45.79261" lon="3.60576">
        <ele>593.4</ele>
        <time>2020-08-15T05:28:22Z</time>
      </trkpt>
      <trkpt lat="45.79169" lon="3.60543">
        <ele>594.4</ele>
        <time>2020-08-15T05:28:37Z</time>
      </trkpt>
      <trkpt lat="45.79064" lon="3.60557">
        <ele>594.2</ele>
        <time>2020-08-15T05:29:02Z</time>
      </trkpt>
      <trkpt lat="45.78962" lon="3.60534">
        <ele>594.5</ele>
        <time>2020-08-15T05:29:37Z</time>
      </trkpt>
      <trkpt lat="45.78865" lon="3.60493">
        <ele>596</ele>
        <time>2020-08-15T05:30:12Z</time>
      </trkpt>
      <trkpt lat="45.78734" lon="3.60459">
        <ele>596.8</ele>
        <time>2020-08-15T05:30:32Z</time>
      </trkpt>
      <trkpt lat="45.78681" lon="3.60316">
        <ele>595.9</ele>
        <time>2020-08-15T05:30:47Z</time>
      </trkpt>
      <trkpt lat="45.78647" lon="3.60158">
        <ele>595.7</ele>
        <time>2020-08-15T05:31:07Z</time>
      </trkpt>
      <trkpt lat="45.78621" lon="3.60029">
        <ele>597.9</ele>
        <time>2020-08-15T05:32:09Z</time>
      </trkpt>
      <trkpt lat="45.78517" lon="3.60052">
        <ele>593.2</ele>
        <time>2020-08-15T05:32:49Z</time>
      </trkpt>
      <trkpt lat="45.78402" lon="3.60048">
        <ele>589.3</ele>
        <time>2020-08-15T05:33:04Z</time>
      </trkpt>
      <trkpt lat="45.78323" lon="3.59947">
        <ele>582.2</ele>
        <time>2020-08-15T05:33:38Z</time>
      </trkpt>
      <trkpt lat="45.78196" lon="3.59898">
        <ele>574.6</ele>
        <time>2020-08-15T05:33:53Z</time>
      </trkpt>
      <trkpt lat="45.78074" lon="3.59825">
        <ele>570.8</ele>
        <time>2020-08-15T05:34:08Z</time>
      </trkpt>
      <trkpt lat="45.7794" lon="3.59836">
        <ele>563.8</ele>
        <time>2020-08-15T05:34:23Z</time>
      </trkpt>
      <trkpt lat="45.77858" lon="3.5974">
        <ele>557.2</ele>
        <time>2020-08-15T05:34:33Z</time>
      </trkpt>
      <trkpt lat="45.77745" lon="3.59713">
        <ele>551.2</ele>
        <time>2020-08-15T05:34:43Z</time>
      </trkpt>
      <trkpt lat="45.7764" lon="3.59719">
        <ele>545</ele>
        <time>2020-08-15T05:34:53Z</time>
      </trkpt>
      <trkpt lat="45.777" lon="3.59608">
        <ele>521</ele>
        <time>2020-08-15T05:35:47Z</time>
      </trkpt>
      <trkpt lat="45.77802" lon="3.59484">
        <ele>514.4</ele>
        <time>2020-08-15T05:36:02Z</time>
      </trkpt>
      <trkpt lat="45.77796" lon="3.59312">
        <ele>510.7</ele>
        <time>2020-08-15T05:36:17Z</time>
      </trkpt>
      <trkpt lat="45.77718" lon="3.59217">
        <ele>509.4</ele>
        <time>2020-08-15T05:36:54Z</time>
      </trkpt>
      <trkpt lat="45.77628" lon="3.59191">
        <ele>507.1</ele>
        <time>2020-08-15T05:37:14Z</time>
      </trkpt>
      <trkpt lat="45.77525" lon="3.59225">
        <ele>502.6</ele>
        <time>2020-08-15T05:37:34Z</time>
      </trkpt>
      <trkpt lat="45.77438" lon="3.5931">
        <ele>499.8</ele>
        <time>2020-08-15T05:37:54Z</time>
      </trkpt>
      <trkpt lat="45.7734" lon="3.59287">
        <ele>496.4</ele>
        <time>2020-08-15T05:38:19Z</time>
      </trkpt>
      <trkpt lat="45.77253" lon="3.59225">
        <ele>498.3</ele>
        <time>2020-08-15T05:38:44Z</time>
      </trkpt>
      <trkpt lat="45.77173" lon="3.59158">
        <ele>499</ele>
        <time>2020-08-15T05:39:09Z</time>
      </trkpt>
      <trkpt lat="45.77089" lon="3.59094">
        <ele>498.2</ele>
        <time>2020-08-15T05:39:34Z</time>
      </trkpt>
      <trkpt lat="45.77005" lon="3.5902">
        <ele>496.4</ele>
        <time>2020-08-15T05:39:59Z</time>
      </trkpt>
      <trkpt lat="45.76913" lon="3.58927">
        <ele>493.8</ele>
        <time>2020-08-15T05:40:24Z</time>
      </trkpt>
      <trkpt lat="45.76822" lon="3.58841">
        <ele>493.6</ele>
        <time>2020-08-15T05:40:49Z</time>
      </trkpt>
      <trkpt lat="45.7676" lon="3.58733">
        <ele>493.9</ele>
        <time>2020-08-15T05:41:19Z</time>
      </trkpt>
      <trkpt lat="45.76697" lon="3.58635">
        <ele>494.2</ele>
        <time>2020-08-15T05:41:54Z</time>
      </trkpt>
      <trkpt lat="45.76621" lon="3.58536">
        <ele>494</ele>
        <time>2020-08-15T05:42:39Z</time>
      </trkpt>
      <trkpt lat="45.76534" lon="3.58451">
        <ele>493.3</ele>
        <time>2020-08-15T05:43:09Z</time>
      </trkpt>
      <trkpt lat="45.76437" lon="3.58355">
        <ele>493.2</ele>
        <time>2020-08-15T05:43:29Z</time>
      </trkpt>
      <trkpt lat="45.76351" lon="3.58273">
        <ele>493.9</ele>
        <time>2020-08-15T05:43:49Z</time>
      </trkpt>
      <trkpt lat="45.76261" lon="3.58197">
        <ele>493.6</ele>
        <time>2020-08-15T05:44:24Z</time>
      </trkpt>
      <trkpt lat="45.76175" lon="3.58133">
        <ele>493.9</ele>
        <time>2020-08-15T05:44:59Z</time>
      </trkpt>
      <trkpt lat="45.76095" lon="3.58048">
        <ele>494.6</ele>
        <time>2020-08-15T05:45:29Z</time>
      </trkpt>
      <trkpt lat="45.76017" lon="3.57961">
        <ele>493.8</ele>
        <time>2020-08-15T05:45:49Z</time>
      </trkpt>
      <trkpt lat="45.75971" lon="3.57821">
        <ele>494.4</ele>
        <time>2020-08-15T05:46:14Z</time>
      </trkpt>
      <trkpt lat="45.75933" lon="3.57696">
        <ele>495.2</ele>
        <time>2020-08-15T05:46:54Z</time>
      </trkpt>
      <trkpt lat="45.75881" lon="3.57581">
        <ele>496.1</ele>
        <time>2020-08-15T05:47:29Z</time>
      </trkpt>
      <trkpt lat="45.75816" lon="3.57473">
        <ele>497.3</ele>
        <time>2020-08-15T05:48:04Z</time>
      </trkpt>
      <trkpt lat="45.75719" lon="3.57433">
        <ele>498.8</ele>
        <time>2020-08-15T05:48:39Z</time>
      </trkpt>
      <trkpt lat="45.75631" lon="3.57363">
        <ele>500.1</ele>
        <time>2020-08-15T05:49:09Z</time>
      </trkpt>
      <trkpt lat="45.75565" lon="3.57249">
        <ele>500.8</ele>
        <time>2020-08-15T05:49:44Z</time>
      </trkpt>
      <trkpt lat="45.75557" lon="3.57098">
        <ele>501.8</ele>
        <time>2020-08-15T05:50:09Z</time>
      </trkpt>
      <trkpt lat="45.75569" lon="3.5691">
        <ele>500.8</ele>
        <time>2020-08-15T05:50:24Z</time>
      </trkpt>
      <trkpt lat="45.75588" lon="3.56777">
        <ele>500.6</ele>
        <time>2020-08-15T05:50:34Z</time>
      </trkpt>
      <trkpt lat="45.75593" lon="3.56639">
        <ele>500</ele>
        <time>2020-08-15T05:50:44Z</time>
      </trkpt>
      <trkpt lat="45.75592" lon="3.56497">
        <ele>498.7</ele>
        <time>2020-08-15T05:50:54Z</time>
      </trkpt>
      <trkpt lat="45.75595" lon="3.56347">
        <ele>497</ele>
        <time>2020-08-15T05:51:04Z</time>
      </trkpt>
      <trkpt lat="45.75503" lon="3.56239">
        <ele>494.1</ele>
        <time>2020-08-15T05:51:19Z</time>
      </trkpt>
      <trkpt lat="45.75396" lon="3.56158">
        <ele>489.9</ele>
        <time>2020-08-15T05:51:34Z</time>
      </trkpt>
      <trkpt lat="45.75365" lon="3.56034">
        <ele>486</ele>
        <time>2020-08-15T05:51:44Z</time>
      </trkpt>
      <trkpt lat="45.75307" lon="3.55899">
        <ele>481.4</ele>
        <time>2020-08-15T05:51:54Z</time>
      </trkpt>
      <trkpt lat="45.75267" lon="3.55744">
        <ele>477.9</ele>
        <time>2020-08-15T05:52:04Z</time>
      </trkpt>
      <trkpt lat="45.75223" lon="3.55589">
        <ele>471.8</ele>
        <time>2020-08-15T05:52:14Z</time>
      </trkpt>
      <trkpt lat="45.75192" lon="3.55455">
        <ele>458.4</ele>
        <time>2020-08-15T05:52:24Z</time>
      </trkpt>
      <trkpt lat="45.75268" lon="3.5538">
        <ele>450.9</ele>
        <time>2020-08-15T05:52:34Z</time>
      </trkpt>
      <trkpt lat="45.75378" lon="3.55452">
        <ele>443.1</ele>
        <time>2020-08-15T05:52:49Z</time>
      </trkpt>
      <trkpt lat="45.75456" lon="3.55292">
        <ele>428.4</ele>
        <time>2020-08-15T05:53:04Z</time>
      </trkpt>
      <trkpt lat="45.75556" lon="3.55274">
        <ele>419.3</ele>
        <time>2020-08-15T05:53:14Z</time>
      </trkpt>
      <trkpt lat="45.75631" lon="3.55184">
        <ele>410.3</ele>
        <time>2020-08-15T05:53:24Z</time>
      </trkpt>
      <trkpt lat="45.75612" lon="3.55053">
        <ele>400.9</ele>
        <time>2020-08-15T05:53:39Z</time>
      </trkpt>
      <trkpt lat="45.75596" lon="3.5492">
        <ele>397.9</ele>
        <time>2020-08-15T05:53:54Z</time>
      </trkpt>
      <trkpt lat="45.75579" lon="3.54777">
        <ele>389.4</ele>
        <time>2020-08-15T05:55:07Z</time>
      </trkpt>
      <trkpt lat="45.75523" lon="3.54661">
        <ele>386.6</ele>
        <time>2020-08-15T05:55:44Z</time>
      </trkpt>
      <trkpt lat="45.75491" lon="3.54537">
        <ele>382.4</ele>
        <time>2020-08-15T05:56:48Z</time>
      </trkpt>
      <trkpt lat="45.75443" lon="3.54422">
        <ele>378.4</ele>
        <time>2020-08-15T05:57:18Z</time>
      </trkpt>
      <trkpt lat="45.75475" lon="3.54302">
        <ele>376.3</ele>
        <time>2020-08-15T05:58:03Z</time>
      </trkpt>
      <trkpt lat="45.75572" lon="3.54264">
        <ele>376.1</ele>
        <time>2020-08-15T05:58:33Z</time>
      </trkpt>
      <trkpt lat="45.7566" lon="3.54227">
        <ele>374.4</ele>
        <time>2020-08-15T05:59:04Z</time>
      </trkpt>
      <trkpt lat="45.75637" lon="3.54097">
        <ele>371.4</ele>
        <time>2020-08-15T06:16:23Z</time>
      </trkpt>
      <trkpt lat="45.75591" lon="3.53983">
        <ele>371</ele>
        <time>2020-08-15T06:16:58Z</time>
      </trkpt>
      <trkpt lat="45.75566" lon="3.53845">
        <ele>371.3</ele>
        <time>2020-08-15T06:17:50Z</time>
      </trkpt>
      <trkpt lat="45.7556" lon="3.53713">
        <ele>372</ele>
        <time>2020-08-15T06:18:25Z</time>
      </trkpt>
      <trkpt lat="45.75477" lon="3.53638">
        <ele>372.6</ele>
        <time>2020-08-15T06:19:00Z</time>
      </trkpt>
      <trkpt lat="45.75397" lon="3.53557">
        <ele>373.3</ele>
        <time>2020-08-15T06:19:40Z</time>
      </trkpt>
      <trkpt lat="45.75345" lon="3.53438">
        <ele>374.1</ele>
        <time>2020-08-15T06:20:27Z</time>
      </trkpt>
      <trkpt lat="45.75284" lon="3.5332">
        <ele>374.7</ele>
        <time>2020-08-15T06:20:57Z</time>
      </trkpt>
      <trkpt lat="45.75218" lon="3.53204">
        <ele>375.2</ele>
        <time>2020-08-15T06:21:26Z</time>
      </trkpt>
      <trkpt lat="45.75131" lon="3.53122">
        <ele>375.7</ele>
        <time>2020-08-15T06:21:56Z</time>
      </trkpt>
      <trkpt lat="45.75033" lon="3.53087">
        <ele>376.9</ele>
        <time>2020-08-15T06:22:21Z</time>
      </trkpt>
      <trkpt lat="45.74922" lon="3.53115">
        <ele>377.1</ele>
        <time>2020-08-15T06:22:41Z</time>
      </trkpt>
      <trkpt lat="45.7482" lon="3.53054">
        <ele>377.4</ele>
        <time>2020-08-15T06:23:01Z</time>
      </trkpt>
      <trkpt lat="45.7476" lon="3.52946">
        <ele>377.6</ele>
        <time>2020-08-15T06:23:21Z</time>
      </trkpt>
      <trkpt lat="45.74683" lon="3.52866">
        <ele>378.2</ele>
        <time>2020-08-15T06:23:46Z</time>
      </trkpt>
      <trkpt lat="45.74589" lon="3.52812">
        <ele>379</ele>
        <time>2020-08-15T06:24:21Z</time>
      </trkpt>
      <trkpt lat="45.74494" lon="3.52773">
        <ele>380.6</ele>
        <time>2020-08-15T06:25:01Z</time>
      </trkpt>
      <trkpt lat="45.74402" lon="3.52716">
        <ele>383.8</ele>
        <time>2020-08-15T06:25:46Z</time>
      </trkpt>
      <trkpt lat="45.74311" lon="3.52719">
        <ele>387</ele>
        <time>2020-08-15T06:26:31Z</time>
      </trkpt>
      <trkpt lat="45.74229" lon="3.52657">
        <ele>389.6</ele>
        <time>2020-08-15T06:27:16Z</time>
      </trkpt>
      <trkpt lat="45.74136" lon="3.52668">
        <ele>391.4</ele>
        <time>2020-08-15T06:27:51Z</time>
      </trkpt>
      <trkpt lat="45.74034" lon="3.52651">
        <ele>393.3</ele>
        <time>2020-08-15T06:28:26Z</time>
      </trkpt>
      <trkpt lat="45.73958" lon="3.52551">
        <ele>395</ele>
        <time>2020-08-15T06:29:01Z</time>
      </trkpt>
      <trkpt lat="45.73856" lon="3.52545">
        <ele>397.5</ele>
        <time>2020-08-15T06:29:36Z</time>
      </trkpt>
      <trkpt lat="45.73761" lon="3.52541">
        <ele>402.3</ele>
        <time>2020-08-15T06:30:11Z</time>
      </trkpt>
      <trkpt lat="45.73684" lon="3.5244">
        <ele>406.7</ele>
        <time>2020-08-15T06:30:46Z</time>
      </trkpt>
      <trkpt lat="45.73609" lon="3.52359">
        <ele>409.4</ele>
        <time>2020-08-15T06:31:16Z</time>
      </trkpt>
      <trkpt lat="45.73522" lon="3.52289">
        <ele>411.6</ele>
        <time>2020-08-15T06:31:46Z</time>
      </trkpt>
      <trkpt lat="45.73432" lon="3.5223">
        <ele>413.3</ele>
        <time>2020-08-15T06:32:16Z</time>
      </trkpt>
      <trkpt lat="45.73348" lon="3.52147">
        <ele>415</ele>
        <time>2020-08-15T06:32:51Z</time>
      </trkpt>
      <trkpt lat="45.73247" lon="3.52109">
        <ele>416.2</ele>
        <time>2020-08-15T06:33:21Z</time>
      </trkpt>
      <trkpt lat="45.73174" lon="3.52019">
        <ele>417.5</ele>
        <time>2020-08-15T06:33:51Z</time>
      </trkpt>
      <trkpt lat="45.73104" lon="3.51906">
        <ele>418.7</ele>
        <time>2020-08-15T06:34:21Z</time>
      </trkpt>
      <trkpt lat="45.73046" lon="3.51778">
        <ele>420.3</ele>
        <time>2020-08-15T06:34:56Z</time>
      </trkpt>
      <trkpt lat="45.72975" lon="3.51668">
        <ele>421.7</ele>
        <time>2020-08-15T06:35:31Z</time>
      </trkpt>
      <trkpt lat="45.72897" lon="3.51567">
        <ele>422.8</ele>
        <time>2020-08-15T06:36:01Z</time>
      </trkpt>
      <trkpt lat="45.72834" lon="3.51457">
        <ele>424</ele>
        <time>2020-08-15T06:36:31Z</time>
      </trkpt>
      <trkpt lat="45.72752" lon="3.51388">
        <ele>425.5</ele>
        <time>2020-08-15T06:37:06Z</time>
      </trkpt>
      <trkpt lat="45.72698" lon="3.5128">
        <ele>427.4</ele>
        <time>2020-08-15T06:37:46Z</time>
      </trkpt>
      <trkpt lat="45.72658" lon="3.51145">
        <ele>428.9</ele>
        <time>2020-08-15T06:38:21Z</time>
      </trkpt>
      <trkpt lat="45.72646" lon="3.50996">
        <ele>431.6</ele>
        <time>2020-08-15T06:38:51Z</time>
      </trkpt>
      <trkpt lat="45.72601" lon="3.50858">
        <ele>431.6</ele>
        <time>2020-08-15T06:39:16Z</time>
      </trkpt>
      <trkpt lat="45.72577" lon="3.50722">
        <ele>432.1</ele>
        <time>2020-08-15T06:39:36Z</time>
      </trkpt>
      <trkpt lat="45.72536" lon="3.50599">
        <ele>432.5</ele>
        <time>2020-08-15T06:40:16Z</time>
      </trkpt>
      <trkpt lat="45.72539" lon="3.50464">
        <ele>435.2</ele>
        <time>2020-08-15T06:41:19Z</time>
      </trkpt>
      <trkpt lat="45.72519" lon="3.50334">
        <ele>437.5</ele>
        <time>2020-08-15T06:42:09Z</time>
      </trkpt>
      <trkpt lat="45.72456" lon="3.50218">
        <ele>439.8</ele>
        <time>2020-08-15T06:42:54Z</time>
      </trkpt>
      <trkpt lat="45.72366" lon="3.5021">
        <ele>442.1</ele>
        <time>2020-08-15T06:43:34Z</time>
      </trkpt>
      <trkpt lat="45.72298" lon="3.5012">
        <ele>447.4</ele>
        <time>2020-08-15T06:44:35Z</time>
      </trkpt>
      <trkpt lat="45.72206" lon="3.50146">
        <ele>455.7</ele>
        <time>2020-08-15T06:45:21Z</time>
      </trkpt>
      <trkpt lat="45.72106" lon="3.50133">
        <ele>472.2</ele>
        <time>2020-08-15T06:46:17Z</time>
      </trkpt>
      <trkpt lat="45.72007" lon="3.50148">
        <ele>479.1</ele>
        <time>2020-08-15T06:46:57Z</time>
      </trkpt>
      <trkpt lat="45.71911" lon="3.5015">
        <ele>484.6</ele>
        <time>2020-08-15T06:47:42Z</time>
      </trkpt>
      <trkpt lat="45.71817" lon="3.50139">
        <ele>489.5</ele>
        <time>2020-08-15T06:48:29Z</time>
      </trkpt>
      <trkpt lat="45.71754" lon="3.50025">
        <ele>495.1</ele>
        <time>2020-08-15T06:49:21Z</time>
      </trkpt>
      <trkpt lat="45.71666" lon="3.49991">
        <ele>499.3</ele>
        <time>2020-08-15T06:50:11Z</time>
      </trkpt>
      <trkpt lat="45.71584" lon="3.49922">
        <ele>502.8</ele>
        <time>2020-08-15T06:50:58Z</time>
      </trkpt>
      <trkpt lat="45.71485" lon="3.49909">
        <ele>505.9</ele>
        <time>2020-08-15T06:51:43Z</time>
      </trkpt>
      <trkpt lat="45.71391" lon="3.49862">
        <ele>508.1</ele>
        <time>2020-08-15T06:52:28Z</time>
      </trkpt>
      <trkpt lat="45.71293" lon="3.49848">
        <ele>509.9</ele>
        <time>2020-08-15T06:53:13Z</time>
      </trkpt>
      <trkpt lat="45.71197" lon="3.49806">
        <ele>511.4</ele>
        <time>2020-08-15T06:53:58Z</time>
      </trkpt>
      <trkpt lat="45.71105" lon="3.49816">
        <ele>512.8</ele>
        <time>2020-08-15T06:54:38Z</time>
      </trkpt>
      <trkpt lat="45.71041" lon="3.49923">
        <ele>514.5</ele>
        <time>2020-08-15T06:55:18Z</time>
      </trkpt>
      <trkpt lat="45.70952" lon="3.49984">
        <ele>516.9</ele>
        <time>2020-08-15T06:55:48Z</time>
      </trkpt>
      <trkpt lat="45.70851" lon="3.49991">
        <ele>517.5</ele>
        <time>2020-08-15T06:56:23Z</time>
      </trkpt>
      <trkpt lat="45.70761" lon="3.50017">
        <ele>518.4</ele>
        <time>2020-08-15T06:57:03Z</time>
      </trkpt>
      <trkpt lat="45.7067" lon="3.50024">
        <ele>519.2</ele>
        <time>2020-08-15T06:57:33Z</time>
      </trkpt>
      <trkpt lat="45.70586" lon="3.49932">
        <ele>520.1</ele>
        <time>2020-08-15T06:58:03Z</time>
      </trkpt>
      <trkpt lat="45.705" lon="3.49877">
        <ele>522.4</ele>
        <time>2020-08-15T06:58:28Z</time>
      </trkpt>
      <trkpt lat="45.70401" lon="3.49821">
        <ele>523.4</ele>
        <time>2020-08-15T06:58:53Z</time>
      </trkpt>
      <trkpt lat="45.70311" lon="3.49769">
        <ele>524.3</ele>
        <time>2020-08-15T06:59:18Z</time>
      </trkpt>
      <trkpt lat="45.70242" lon="3.49676">
        <ele>525</ele>
        <time>2020-08-15T06:59:43Z</time>
      </trkpt>
      <trkpt lat="45.70171" lon="3.49573">
        <ele>525.7</ele>
        <time>2020-08-15T07:00:18Z</time>
      </trkpt>
      <trkpt lat="45.70082" lon="3.49512">
        <ele>528</ele>
        <time>2020-08-15T07:00:48Z</time>
      </trkpt>
      <trkpt lat="45.69963" lon="3.49492">
        <ele>528.8</ele>
        <time>2020-08-15T07:01:08Z</time>
      </trkpt>
      <trkpt lat="45.69868" lon="3.49452">
        <ele>528.9</ele>
        <time>2020-08-15T07:01:23Z</time>
      </trkpt>
      <trkpt lat="45.69773" lon="3.49428">
        <ele>528.7</ele>
        <time>2020-08-15T07:01:38Z</time>
      </trkpt>
      <trkpt lat="45.69676" lon="3.49399">
        <ele>529.2</ele>
        <time>2020-08-15T07:01:53Z</time>
      </trkpt>
      <trkpt lat="45.69576" lon="3.49394">
        <ele>532.1</ele>
        <time>2020-08-15T07:02:08Z</time>
      </trkpt>
      <trkpt lat="45.69474" lon="3.49358">
        <ele>532.4</ele>
        <time>2020-08-15T07:02:23Z</time>
      </trkpt>
      <trkpt lat="45.69369" lon="3.49279">
        <ele>529.7</ele>
        <time>2020-08-15T07:02:38Z</time>
      </trkpt>
      <trkpt lat="45.69264" lon="3.49244">
        <ele>526.6</ele>
        <time>2020-08-15T07:02:53Z</time>
      </trkpt>
      <trkpt lat="45.6915" lon="3.49199">
        <ele>519.6</ele>
        <time>2020-08-15T07:03:08Z</time>
      </trkpt>
      <trkpt lat="45.69047" lon="3.49186">
        <ele>516.9</ele>
        <time>2020-08-15T07:03:23Z</time>
      </trkpt>
      <trkpt lat="45.68941" lon="3.49254">
        <ele>515.1</ele>
        <time>2020-08-15T07:03:38Z</time>
      </trkpt>
      <trkpt lat="45.68861" lon="3.49327">
        <ele>513.8</ele>
        <time>2020-08-15T07:03:58Z</time>
      </trkpt>
      <trkpt lat="45.68749" lon="3.49342">
        <ele>511</ele>
        <time>2020-08-15T07:04:18Z</time>
      </trkpt>
      <trkpt lat="45.6866" lon="3.49247">
        <ele>506</ele>
        <time>2020-08-15T07:04:33Z</time>
      </trkpt>
      <trkpt lat="45.68704" lon="3.49089">
        <ele>500.5</ele>
        <time>2020-08-15T07:04:48Z</time>
      </trkpt>
      <trkpt lat="45.68645" lon="3.48934">
        <ele>497</ele>
        <time>2020-08-15T07:05:03Z</time>
      </trkpt>
      <trkpt lat="45.68586" lon="3.4883">
        <ele>495</ele>
        <time>2020-08-15T07:05:18Z</time>
      </trkpt>
      <trkpt lat="45.68514" lon="3.487">
        <ele>491.3</ele>
        <time>2020-08-15T07:05:38Z</time>
      </trkpt>
      <trkpt lat="45.68438" lon="3.4859">
        <ele>490.2</ele>
        <time>2020-08-15T07:05:58Z</time>
      </trkpt>
      <trkpt lat="45.68356" lon="3.48503">
        <ele>490.7</ele>
        <time>2020-08-15T07:06:38Z</time>
      </trkpt>
      <trkpt lat="45.68259" lon="3.4846">
        <ele>490.9</ele>
        <time>2020-08-15T07:07:28Z</time>
      </trkpt>
      <trkpt lat="45.68162" lon="3.48455">
        <ele>491.4</ele>
        <time>2020-08-15T07:08:13Z</time>
      </trkpt>
      <trkpt lat="45.68065" lon="3.48467">
        <ele>491.8</ele>
        <time>2020-08-15T07:08:53Z</time>
      </trkpt>
      <trkpt lat="45.67964" lon="3.48415">
        <ele>492.8</ele>
        <time>2020-08-15T07:09:28Z</time>
      </trkpt>
      <trkpt lat="45.67853" lon="3.48396">
        <ele>491.9</ele>
        <time>2020-08-15T07:09:53Z</time>
      </trkpt>
      <trkpt lat="45.67754" lon="3.48344">
        <ele>492.5</ele>
        <time>2020-08-15T07:10:18Z</time>
      </trkpt>
      <trkpt lat="45.67661" lon="3.48268">
        <ele>494.3</ele>
        <time>2020-08-15T07:10:53Z</time>
      </trkpt>
      <trkpt lat="45.67614" lon="3.48135">
        <ele>494.5</ele>
        <time>2020-08-15T07:11:23Z</time>
      </trkpt>
      <trkpt lat="45.67508" lon="3.48191">
        <ele>495.9</ele>
        <time>2020-08-15T07:11:59Z</time>
      </trkpt>
      <trkpt lat="45.6745" lon="3.48307">
        <ele>495.8</ele>
        <time>2020-08-15T07:12:19Z</time>
      </trkpt>
      <trkpt lat="45.67483" lon="3.48436">
        <ele>497.8</ele>
        <time>2020-08-15T07:13:37Z</time>
      </trkpt>
      <trkpt lat="45.67393" lon="3.48466">
        <ele>501.3</ele>
        <time>2020-08-15T07:14:48Z</time>
      </trkpt>
      <trkpt lat="45.67296" lon="3.48446">
        <ele>506.4</ele>
        <time>2020-08-15T07:15:50Z</time>
      </trkpt>
      <trkpt lat="45.67205" lon="3.48446">
        <ele>513.2</ele>
        <time>2020-08-15T07:16:53Z</time>
      </trkpt>
      <trkpt lat="45.67115" lon="3.48474">
        <ele>519</ele>
        <time>2020-08-15T07:17:55Z</time>
      </trkpt>
      <trkpt lat="45.67019" lon="3.48491">
        <ele>523.4</ele>
        <time>2020-08-15T07:19:00Z</time>
      </trkpt>
      <trkpt lat="45.66927" lon="3.4852">
        <ele>527.6</ele>
        <time>2020-08-15T07:20:08Z</time>
      </trkpt>
      <trkpt lat="45.66835" lon="3.48542">
        <ele>531.4</ele>
        <time>2020-08-15T07:20:59Z</time>
      </trkpt>
      <trkpt lat="45.6674" lon="3.4855">
        <ele>535.5</ele>
        <time>2020-08-15T07:21:56Z</time>
      </trkpt>
      <trkpt lat="45.66721" lon="3.48677">
        <ele>543.4</ele>
        <time>2020-08-15T07:23:37Z</time>
      </trkpt>
      <trkpt lat="45.66781" lon="3.48789">
        <ele>549.2</ele>
        <time>2020-08-15T07:24:32Z</time>
      </trkpt>
      <trkpt lat="45.66755" lon="3.48912">
        <ele>555.4</ele>
        <time>2020-08-15T07:25:17Z</time>
      </trkpt>
      <trkpt lat="45.66711" lon="3.49028">
        <ele>582.2</ele>
        <time>2020-08-15T07:37:14Z</time>
      </trkpt>
      <trkpt lat="45.66627" lon="3.49143">
        <ele>582.6</ele>
        <time>2020-08-15T07:37:34Z</time>
      </trkpt>
      <trkpt lat="45.6654" lon="3.49254">
        <ele>582.5</ele>
        <time>2020-08-15T07:37:54Z</time>
      </trkpt>
      <trkpt lat="45.66442" lon="3.4933">
        <ele>581.3</ele>
        <time>2020-08-15T07:38:09Z</time>
      </trkpt>
      <trkpt lat="45.66321" lon="3.49396">
        <ele>579.4</ele>
        <time>2020-08-15T07:38:24Z</time>
      </trkpt>
      <trkpt lat="45.66256" lon="3.49507">
        <ele>577.4</ele>
        <time>2020-08-15T07:38:34Z</time>
      </trkpt>
      <trkpt lat="45.66145" lon="3.49544">
        <ele>576.7</ele>
        <time>2020-08-15T07:38:49Z</time>
      </trkpt>
      <trkpt lat="45.66053" lon="3.49552">
        <ele>574</ele>
        <time>2020-08-15T07:39:09Z</time>
      </trkpt>
      <trkpt lat="45.65955" lon="3.49534">
        <ele>572.1</ele>
        <time>2020-08-15T07:39:57Z</time>
      </trkpt>
      <trkpt lat="45.65859" lon="3.49513">
        <ele>573.3</ele>
        <time>2020-08-15T07:40:58Z</time>
      </trkpt>
      <trkpt lat="45.65768" lon="3.49489">
        <ele>575.3</ele>
        <time>2020-08-15T07:41:54Z</time>
      </trkpt>
      <trkpt lat="45.65674" lon="3.49467">
        <ele>578.1</ele>
        <time>2020-08-15T07:42:53Z</time>
      </trkpt>
      <trkpt lat="45.65575" lon="3.49448">
        <ele>581.6</ele>
        <time>2020-08-15T07:43:54Z</time>
      </trkpt>
      <trkpt lat="45.65478" lon="3.49472">
        <ele>586</ele>
        <time>2020-08-15T07:44:55Z</time>
      </trkpt>
      <trkpt lat="45.65402" lon="3.49545">
        <ele>589.5</ele>
        <time>2020-08-15T07:45:48Z</time>
      </trkpt>
      <trkpt lat="45.65333" lon="3.49625">
        <ele>593.3</ele>
        <time>2020-08-15T07:46:42Z</time>
      </trkpt>
      <trkpt lat="45.65249" lon="3.49673">
        <ele>596.9</ele>
        <time>2020-08-15T07:47:37Z</time>
      </trkpt>
      <trkpt lat="45.65158" lon="3.49713">
        <ele>601.2</ele>
        <time>2020-08-15T07:48:42Z</time>
      </trkpt>
      <trkpt lat="45.65082" lon="3.49798">
        <ele>605.5</ele>
        <time>2020-08-15T07:49:48Z</time>
      </trkpt>
      <trkpt lat="45.65016" lon="3.49885">
        <ele>608.7</ele>
        <time>2020-08-15T07:50:42Z</time>
      </trkpt>
      <trkpt lat="45.64945" lon="3.4998">
        <ele>612</ele>
        <time>2020-08-15T07:51:43Z</time>
      </trkpt>
      <trkpt lat="45.64861" lon="3.50047">
        <ele>614.8</ele>
        <time>2020-08-15T07:52:32Z</time>
      </trkpt>
      <trkpt lat="45.64763" lon="3.50013">
        <ele>620.4</ele>
        <time>2020-08-15T07:53:29Z</time>
      </trkpt>
      <trkpt lat="45.64667" lon="3.50023">
        <ele>631.8</ele>
        <time>2020-08-15T07:54:32Z</time>
      </trkpt>
      <trkpt lat="45.64598" lon="3.50121">
        <ele>645.2</ele>
        <time>2020-08-15T07:55:37Z</time>
      </trkpt>
      <trkpt lat="45.6452" lon="3.50202">
        <ele>656.4</ele>
        <time>2020-08-15T07:56:37Z</time>
      </trkpt>
      <trkpt lat="45.64432" lon="3.50241">
        <ele>665.5</ele>
        <time>2020-08-15T07:57:31Z</time>
      </trkpt>
      <trkpt lat="45.64333" lon="3.50226">
        <ele>675.9</ele>
        <time>2020-08-15T07:58:39Z</time>
      </trkpt>
      <trkpt lat="45.64237" lon="3.50243">
        <ele>683.5</ele>
        <time>2020-08-15T07:59:42Z</time>
      </trkpt>
      <trkpt lat="45.64144" lon="3.50265">
        <ele>689.3</ele>
        <time>2020-08-15T08:00:40Z</time>
      </trkpt>
      <trkpt lat="45.64082" lon="3.50363">
        <ele>694.8</ele>
        <time>2020-08-15T08:01:42Z</time>
      </trkpt>
      <trkpt lat="45.64114" lon="3.50495">
        <ele>701</ele>
        <time>2020-08-15T08:02:45Z</time>
      </trkpt>
      <trkpt lat="45.64137" lon="3.50633">
        <ele>709.1</ele>
        <time>2020-08-15T08:03:47Z</time>
      </trkpt>
      <trkpt lat="45.64122" lon="3.50767">
        <ele>718</ele>
        <time>2020-08-15T08:04:52Z</time>
      </trkpt>
      <trkpt lat="45.64036" lon="3.5082">
        <ele>725.5</ele>
        <time>2020-08-15T08:05:57Z</time>
      </trkpt>
      <trkpt lat="45.63966" lon="3.50917">
        <ele>731.6</ele>
        <time>2020-08-15T08:07:07Z</time>
      </trkpt>
      <trkpt lat="45.63974" lon="3.51056">
        <ele>735.5</ele>
        <time>2020-08-15T08:08:04Z</time>
      </trkpt>
      <trkpt lat="45.64012" lon="3.51184">
        <ele>737.8</ele>
        <time>2020-08-15T08:08:44Z</time>
      </trkpt>
      <trkpt lat="45.64053" lon="3.51313">
        <ele>740.1</ele>
        <time>2020-08-15T08:09:32Z</time>
      </trkpt>
      <trkpt lat="45.64114" lon="3.51434">
        <ele>743.6</ele>
        <time>2020-08-15T08:10:25Z</time>
      </trkpt>
      <trkpt lat="45.64172" lon="3.51557">
        <ele>746.3</ele>
        <time>2020-08-15T08:10:50Z</time>
      </trkpt>
      <trkpt lat="45.6419" lon="3.51694">
        <ele>747.7</ele>
        <time>2020-08-15T08:11:43Z</time>
      </trkpt>
      <trkpt lat="45.64143" lon="3.51803">
        <ele>754.6</ele>
        <time>2020-08-15T08:12:49Z</time>
      </trkpt>
      <trkpt lat="45.64054" lon="3.51853">
        <ele>768</ele>
        <time>2020-08-15T08:13:57Z</time>
      </trkpt>
      <trkpt lat="45.63964" lon="3.51901">
        <ele>776.4</ele>
        <time>2020-08-15T08:15:02Z</time>
      </trkpt>
      <trkpt lat="45.63878" lon="3.51951">
        <ele>781.6</ele>
        <time>2020-08-15T08:15:56Z</time>
      </trkpt>
      <trkpt lat="45.63795" lon="3.51998">
        <ele>785.2</ele>
        <time>2020-08-15T08:16:50Z</time>
      </trkpt>
      <trkpt lat="45.63709" lon="3.52047">
        <ele>787.8</ele>
        <time>2020-08-15T08:17:38Z</time>
      </trkpt>
      <trkpt lat="45.63623" lon="3.52089">
        <ele>789.6</ele>
        <time>2020-08-15T08:18:18Z</time>
      </trkpt>
      <trkpt lat="45.63539" lon="3.5213">
        <ele>791</ele>
        <time>2020-08-15T08:18:58Z</time>
      </trkpt>
      <trkpt lat="45.63456" lon="3.52181">
        <ele>792.8</ele>
        <time>2020-08-15T08:19:48Z</time>
      </trkpt>
      <trkpt lat="45.6337" lon="3.52241">
        <ele>795.1</ele>
        <time>2020-08-15T08:20:47Z</time>
      </trkpt>
      <trkpt lat="45.63278" lon="3.52308">
        <ele>797.4</ele>
        <time>2020-08-15T08:21:22Z</time>
      </trkpt>
      <trkpt lat="45.63187" lon="3.52374">
        <ele>799.4</ele>
        <time>2020-08-15T08:21:47Z</time>
      </trkpt>
      <trkpt lat="45.63106" lon="3.5243">
        <ele>800</ele>
        <time>2020-08-15T08:22:24Z</time>
      </trkpt>
      <trkpt lat="45.63019" lon="3.52496">
        <ele>802.5</ele>
        <time>2020-08-15T08:23:12Z</time>
      </trkpt>
      <trkpt lat="45.62931" lon="3.52558">
        <ele>805.1</ele>
        <time>2020-08-15T08:23:47Z</time>
      </trkpt>
      <trkpt lat="45.62842" lon="3.52629">
        <ele>809.4</ele>
        <time>2020-08-15T08:24:17Z</time>
      </trkpt>
      <trkpt lat="45.62759" lon="3.52687">
        <ele>817.8</ele>
        <time>2020-08-15T08:24:42Z</time>
      </trkpt>
      <trkpt lat="45.62679" lon="3.52743">
        <ele>819.5</ele>
        <time>2020-08-15T08:25:07Z</time>
      </trkpt>
      <trkpt lat="45.62596" lon="3.52798">
        <ele>820.9</ele>
        <time>2020-08-15T08:25:32Z</time>
      </trkpt>
      <trkpt lat="45.62506" lon="3.52865">
        <ele>822.4</ele>
        <time>2020-08-15T08:26:02Z</time>
      </trkpt>
      <trkpt lat="45.62412" lon="3.52932">
        <ele>824.3</ele>
        <time>2020-08-15T08:26:27Z</time>
      </trkpt>
      <trkpt lat="45.62329" lon="3.52991">
        <ele>824.5</ele>
        <time>2020-08-15T08:26:42Z</time>
      </trkpt>
      <trkpt lat="45.6223" lon="3.53065">
        <ele>824.4</ele>
        <time>2020-08-15T08:26:57Z</time>
      </trkpt>
      <trkpt lat="45.62137" lon="3.5313">
        <ele>824.2</ele>
        <time>2020-08-15T08:27:12Z</time>
      </trkpt>
      <trkpt lat="45.62056" lon="3.53188">
        <ele>825</ele>
        <time>2020-08-15T08:27:37Z</time>
      </trkpt>
      <trkpt lat="45.61971" lon="3.53247">
        <ele>825.6</ele>
        <time>2020-08-15T08:28:22Z</time>
      </trkpt>
      <trkpt lat="45.61889" lon="3.53308">
        <ele>827.1</ele>
        <time>2020-08-15T08:29:07Z</time>
      </trkpt>
      <trkpt lat="45.61808" lon="3.53362">
        <ele>829.6</ele>
        <time>2020-08-15T08:29:42Z</time>
      </trkpt>
      <trkpt lat="45.6172" lon="3.53416">
        <ele>834.6</ele>
        <time>2020-08-15T08:30:31Z</time>
      </trkpt>
      <trkpt lat="45.61622" lon="3.53393">
        <ele>842.8</ele>
        <time>2020-08-15T08:31:32Z</time>
      </trkpt>
      <trkpt lat="45.61531" lon="3.53425">
        <ele>850.2</ele>
        <time>2020-08-15T08:32:29Z</time>
      </trkpt>
      <trkpt lat="45.61468" lon="3.53532">
        <ele>853.9</ele>
        <time>2020-08-15T08:33:09Z</time>
      </trkpt>
      <trkpt lat="45.61413" lon="3.53638">
        <ele>855.7</ele>
        <time>2020-08-15T08:33:39Z</time>
      </trkpt>
      <trkpt lat="45.61362" lon="3.53741">
        <ele>856.8</ele>
        <time>2020-08-15T08:34:09Z</time>
      </trkpt>
      <trkpt lat="45.6131" lon="3.53843">
        <ele>857.9</ele>
        <time>2020-08-15T08:34:44Z</time>
      </trkpt>
      <trkpt lat="45.6126" lon="3.5395">
        <ele>860.8</ele>
        <time>2020-08-15T08:35:38Z</time>
      </trkpt>
      <trkpt lat="45.61206" lon="3.54061">
        <ele>863.7</ele>
        <time>2020-08-15T08:36:28Z</time>
      </trkpt>
      <trkpt lat="45.61149" lon="3.54174">
        <ele>865.4</ele>
        <time>2020-08-15T08:36:58Z</time>
      </trkpt>
      <trkpt lat="45.61091" lon="3.54288">
        <ele>867.2</ele>
        <time>2020-08-15T08:37:33Z</time>
      </trkpt>
      <trkpt lat="45.61038" lon="3.54396">
        <ele>868.7</ele>
        <time>2020-08-15T08:38:08Z</time>
      </trkpt>
      <trkpt lat="45.60995" lon="3.54518">
        <ele>870.7</ele>
        <time>2020-08-15T08:38:55Z</time>
      </trkpt>
      <trkpt lat="45.60971" lon="3.54641">
        <ele>873</ele>
        <time>2020-08-15T08:39:45Z</time>
      </trkpt>
      <trkpt lat="45.60934" lon="3.54757">
        <ele>875.7</ele>
        <time>2020-08-15T08:40:37Z</time>
      </trkpt>
      <trkpt lat="45.60879" lon="3.5486">
        <ele>878</ele>
        <time>2020-08-15T08:41:23Z</time>
      </trkpt>
      <trkpt lat="45.60821" lon="3.54955">
        <ele>880.1</ele>
        <time>2020-08-15T08:42:04Z</time>
      </trkpt>
      <trkpt lat="45.60761" lon="3.55061">
        <ele>882.4</ele>
        <time>2020-08-15T08:42:49Z</time>
      </trkpt>
      <trkpt lat="45.60698" lon="3.55175">
        <ele>885.6</ele>
        <time>2020-08-15T08:43:19Z</time>
      </trkpt>
      <trkpt lat="45.60625" lon="3.55269">
        <ele>886.9</ele>
        <time>2020-08-15T08:43:44Z</time>
      </trkpt>
      <trkpt lat="45.60552" lon="3.55369">
        <ele>887.8</ele>
        <time>2020-08-15T08:44:19Z</time>
      </trkpt>
      <trkpt lat="45.60485" lon="3.55479">
        <ele>890.4</ele>
        <time>2020-08-15T08:44:50Z</time>
      </trkpt>
      <trkpt lat="45.60433" lon="3.55611">
        <ele>892.5</ele>
        <time>2020-08-15T08:45:15Z</time>
      </trkpt>
      <trkpt lat="45.60361" lon="3.55731">
        <ele>892.7</ele>
        <time>2020-08-15T08:45:30Z</time>
      </trkpt>
      <trkpt lat="45.60271" lon="3.55761">
        <ele>892.1</ele>
        <time>2020-08-15T08:45:40Z</time>
      </trkpt>
      <trkpt lat="45.60184" lon="3.55824">
        <ele>891.5</ele>
        <time>2020-08-15T08:45:50Z</time>
      </trkpt>
      <trkpt lat="45.60097" lon="3.55935">
        <ele>891.5</ele>
        <time>2020-08-15T08:46:05Z</time>
      </trkpt>
      <trkpt lat="45.60017" lon="3.56002">
        <ele>890.1</ele>
        <time>2020-08-15T08:46:25Z</time>
      </trkpt>
      <trkpt lat="45.59931" lon="3.55953">
        <ele>887.9</ele>
        <time>2020-08-15T08:46:40Z</time>
      </trkpt>
      <trkpt lat="45.59839" lon="3.55935">
        <ele>887.5</ele>
        <time>2020-08-15T08:46:55Z</time>
      </trkpt>
      <trkpt lat="45.59738" lon="3.55877">
        <ele>888</ele>
        <time>2020-08-15T08:47:20Z</time>
      </trkpt>
      <trkpt lat="45.59639" lon="3.55821">
        <ele>886.7</ele>
        <time>2020-08-15T08:47:45Z</time>
      </trkpt>
      <trkpt lat="45.59523" lon="3.5583">
        <ele>884.3</ele>
        <time>2020-08-15T08:48:05Z</time>
      </trkpt>
      <trkpt lat="45.59421" lon="3.55823">
        <ele>882.9</ele>
        <time>2020-08-15T08:48:20Z</time>
      </trkpt>
      <trkpt lat="45.59307" lon="3.55838">
        <ele>882.5</ele>
        <time>2020-08-15T08:48:35Z</time>
      </trkpt>
      <trkpt lat="45.59213" lon="3.55913">
        <ele>882.2</ele>
        <time>2020-08-15T08:48:55Z</time>
      </trkpt>
      <trkpt lat="45.59145" lon="3.56033">
        <ele>880.4</ele>
        <time>2020-08-15T08:49:15Z</time>
      </trkpt>
      <trkpt lat="45.59052" lon="3.56011">
        <ele>881.1</ele>
        <time>2020-08-15T08:49:45Z</time>
      </trkpt>
      <trkpt lat="45.58962" lon="3.55985">
        <ele>882.4</ele>
        <time>2020-08-15T08:50:35Z</time>
      </trkpt>
      <trkpt lat="45.58872" lon="3.5598">
        <ele>885.6</ele>
        <time>2020-08-15T08:51:31Z</time>
      </trkpt>
      <trkpt lat="45.58791" lon="3.56031">
        <ele>890.2</ele>
        <time>2020-08-15T08:52:19Z</time>
      </trkpt>
      <trkpt lat="45.58729" lon="3.56136">
        <ele>896.5</ele>
        <time>2020-08-15T08:53:29Z</time>
      </trkpt>
      <trkpt lat="45.58654" lon="3.5622">
        <ele>903.7</ele>
        <time>2020-08-15T08:54:42Z</time>
      </trkpt>
      <trkpt lat="45.58561" lon="3.56261">
        <ele>909.5</ele>
        <time>2020-08-15T08:55:43Z</time>
      </trkpt>
      <trkpt lat="45.58464" lon="3.56265">
        <ele>914.4</ele>
        <time>2020-08-15T08:56:42Z</time>
      </trkpt>
      <trkpt lat="45.58368" lon="3.56241">
        <ele>919.5</ele>
        <time>2020-08-15T08:57:50Z</time>
      </trkpt>
      <trkpt lat="45.58277" lon="3.56238">
        <ele>926</ele>
        <time>2020-08-15T08:59:03Z</time>
      </trkpt>
      <trkpt lat="45.58182" lon="3.56261">
        <ele>931.7</ele>
        <time>2020-08-15T09:00:16Z</time>
      </trkpt>
      <trkpt lat="45.58151" lon="3.56132">
        <ele>942</ele>
        <time>2020-08-15T09:01:33Z</time>
      </trkpt>
      <trkpt lat="45.58081" lon="3.56033">
        <ele>951.1</ele>
        <time>2020-08-15T09:02:37Z</time>
      </trkpt>
      <trkpt lat="45.58005" lon="3.55955">
        <ele>960</ele>
        <time>2020-08-15T09:03:49Z</time>
      </trkpt>
      <trkpt lat="45.57908" lon="3.55965">
        <ele>964</ele>
        <time>2020-08-15T09:04:47Z</time>
      </trkpt>
      <trkpt lat="45.57809" lon="3.55953">
        <ele>966.4</ele>
        <time>2020-08-15T09:05:12Z</time>
      </trkpt>
      <trkpt lat="45.57699" lon="3.55975">
        <ele>967.5</ele>
        <time>2020-08-15T09:05:37Z</time>
      </trkpt>
      <trkpt lat="45.57619" lon="3.56072">
        <ele>968.1</ele>
        <time>2020-08-15T09:05:52Z</time>
      </trkpt>
      <trkpt lat="45.57533" lon="3.56122">
        <ele>969.4</ele>
        <time>2020-08-15T09:06:12Z</time>
      </trkpt>
      <trkpt lat="45.57464" lon="3.55983">
        <ele>970.4</ele>
        <time>2020-08-15T09:06:42Z</time>
      </trkpt>
      <trkpt lat="45.57397" lon="3.5585">
        <ele>970.8</ele>
        <time>2020-08-15T09:07:02Z</time>
      </trkpt>
      <trkpt lat="45.5729" lon="3.55784">
        <ele>969.8</ele>
        <time>2020-08-15T09:07:22Z</time>
      </trkpt>
      <trkpt lat="45.57206" lon="3.55852">
        <ele>969.6</ele>
        <time>2020-08-15T09:07:42Z</time>
      </trkpt>
      <trkpt lat="45.57123" lon="3.55921">
        <ele>971.9</ele>
        <time>2020-08-15T09:08:42Z</time>
      </trkpt>
      <trkpt lat="45.57074" lon="3.56034">
        <ele>975.9</ele>
        <time>2020-08-15T09:09:49Z</time>
      </trkpt>
      <trkpt lat="45.56998" lon="3.56107">
        <ele>983.9</ele>
        <time>2020-08-15T09:11:14Z</time>
      </trkpt>
      <trkpt lat="45.56908" lon="3.56119">
        <ele>994.1</ele>
        <time>2020-08-15T09:12:29Z</time>
      </trkpt>
      <trkpt lat="45.56933" lon="3.56246">
        <ele>1004</ele>
        <time>2020-08-15T09:14:04Z</time>
      </trkpt>
      <trkpt lat="45.56981" lon="3.5636">
        <ele>1009.5</ele>
        <time>2020-08-15T09:15:13Z</time>
      </trkpt>
      <trkpt lat="45.57024" lon="3.5648">
        <ele>1013.6</ele>
        <time>2020-08-15T09:16:21Z</time>
      </trkpt>
      <trkpt lat="45.56959" lon="3.56573">
        <ele>1018.8</ele>
        <time>2020-08-15T09:17:38Z</time>
      </trkpt>
      <trkpt lat="45.56866" lon="3.56547">
        <ele>1024</ele>
        <time>2020-08-15T09:18:47Z</time>
      </trkpt>
      <trkpt lat="45.56775" lon="3.56573">
        <ele>1029.2</ele>
        <time>2020-08-15T09:19:59Z</time>
      </trkpt>
      <trkpt lat="45.56686" lon="3.56628">
        <ele>1034.8</ele>
        <time>2020-08-15T09:21:04Z</time>
      </trkpt>
      <trkpt lat="45.56595" lon="3.56669">
        <ele>1041.3</ele>
        <time>2020-08-15T09:22:15Z</time>
      </trkpt>
      <trkpt lat="45.56503" lon="3.56699">
        <ele>1049.9</ele>
        <time>2020-08-15T09:25:27Z</time>
      </trkpt>
      <trkpt lat="45.56411" lon="3.56743">
        <ele>1059.9</ele>
        <time>2020-08-15T09:29:21Z</time>
      </trkpt>
      <trkpt lat="45.56339" lon="3.56835">
        <ele>1065</ele>
        <time>2020-08-15T09:30:35Z</time>
      </trkpt>
      <trkpt lat="45.56288" lon="3.56938">
        <ele>1071.4</ele>
        <time>2020-08-15T09:31:37Z</time>
      </trkpt>
      <trkpt lat="45.56284" lon="3.57077">
        <ele>1079.2</ele>
        <time>2020-08-15T09:32:13Z</time>
      </trkpt>
      <trkpt lat="45.5623" lon="3.57186">
        <ele>1080.5</ele>
        <time>2020-08-15T09:32:33Z</time>
      </trkpt>
      <trkpt lat="45.56162" lon="3.57281">
        <ele>1081.9</ele>
        <time>2020-08-15T09:32:53Z</time>
      </trkpt>
      <trkpt lat="45.5609" lon="3.5736">
        <ele>1084.7</ele>
        <time>2020-08-15T09:33:41Z</time>
      </trkpt>
      <trkpt lat="45.55998" lon="3.5735">
        <ele>1087.4</ele>
        <time>2020-08-15T09:34:41Z</time>
      </trkpt>
      <trkpt lat="45.56051" lon="3.57228">
        <ele>1088.1</ele>
        <time>2020-08-15T09:35:06Z</time>
      </trkpt>
      <trkpt lat="45.56079" lon="3.571">
        <ele>1088.4</ele>
        <time>2020-08-15T09:35:36Z</time>
      </trkpt>
      <trkpt lat="45.55981" lon="3.5707">
        <ele>1088.9</ele>
        <time>2020-08-15T09:36:30Z</time>
      </trkpt>
      <trkpt lat="45.55883" lon="3.57069">
        <ele>1089.7</ele>
        <time>2020-08-15T09:37:21Z</time>
      </trkpt>
      <trkpt lat="45.55797" lon="3.57002">
        <ele>1090.7</ele>
        <time>2020-08-15T09:38:12Z</time>
      </trkpt>
      <trkpt lat="45.55729" lon="3.56903">
        <ele>1092</ele>
        <time>2020-08-15T09:39:03Z</time>
      </trkpt>
      <trkpt lat="45.55666" lon="3.56794">
        <ele>1093.9</ele>
        <time>2020-08-15T09:39:58Z</time>
      </trkpt>
      <trkpt lat="45.5559" lon="3.56701">
        <ele>1096.1</ele>
        <time>2020-08-15T09:40:44Z</time>
      </trkpt>
      <trkpt lat="45.55524" lon="3.56595">
        <ele>1098.7</ele>
        <time>2020-08-15T09:41:28Z</time>
      </trkpt>
      <trkpt lat="45.55518" lon="3.56452">
        <ele>1100.5</ele>
        <time>2020-08-15T09:42:03Z</time>
      </trkpt>
      <trkpt lat="45.55555" lon="3.5631">
        <ele>1101.7</ele>
        <time>2020-08-15T09:42:33Z</time>
      </trkpt>
      <trkpt lat="45.55456" lon="3.56289">
        <ele>1104.6</ele>
        <time>2020-08-15T09:44:10Z</time>
      </trkpt>
      <trkpt lat="45.55393" lon="3.56382">
        <ele>1106.3</ele>
        <time>2020-08-15T09:44:45Z</time>
      </trkpt>
      <trkpt lat="45.55292" lon="3.56358">
        <ele>1112.6</ele>
        <time>2020-08-15T09:46:15Z</time>
      </trkpt>
      <trkpt lat="45.55208" lon="3.56297">
        <ele>1114.3</ele>
        <time>2020-08-15T09:46:45Z</time>
      </trkpt>
      <trkpt lat="45.55128" lon="3.56224">
        <ele>1115</ele>
        <time>2020-08-15T09:47:10Z</time>
      </trkpt>
      <trkpt lat="45.55049" lon="3.56122">
        <ele>1115.3</ele>
        <time>2020-08-15T09:47:45Z</time>
      </trkpt>
      <trkpt lat="45.54986" lon="3.56016">
        <ele>1115.2</ele>
        <time>2020-08-15T09:48:20Z</time>
      </trkpt>
      <trkpt lat="45.54905" lon="3.55941">
        <ele>1115</ele>
        <time>2020-08-15T09:48:55Z</time>
      </trkpt>
      <trkpt lat="45.54818" lon="3.55891">
        <ele>1115.1</ele>
        <time>2020-08-15T09:49:19Z</time>
      </trkpt>
      <trkpt lat="45.54716" lon="3.55865">
        <ele>1115.6</ele>
        <time>2020-08-15T09:49:49Z</time>
      </trkpt>
      <trkpt lat="45.54623" lon="3.55816">
        <ele>1116.5</ele>
        <time>2020-08-15T09:50:24Z</time>
      </trkpt>
      <trkpt lat="45.54526" lon="3.55762">
        <ele>1117.8</ele>
        <time>2020-08-15T09:50:54Z</time>
      </trkpt>
      <trkpt lat="45.54442" lon="3.55708">
        <ele>1118.2</ele>
        <time>2020-08-15T09:51:24Z</time>
      </trkpt>
      <trkpt lat="45.54352" lon="3.55642">
        <ele>1118.2</ele>
        <time>2020-08-15T09:51:49Z</time>
      </trkpt>
      <trkpt lat="45.5425" lon="3.55606">
        <ele>1117.9</ele>
        <time>2020-08-15T09:52:14Z</time>
      </trkpt>
      <trkpt lat="45.54163" lon="3.55651">
        <ele>1117.6</ele>
        <time>2020-08-15T09:52:57Z</time>
      </trkpt>
      <trkpt lat="45.54246" lon="3.55606">
        <ele>1119.1</ele>
        <time>2020-08-15T09:56:57Z</time>
      </trkpt>
      <trkpt lat="45.54147" lon="3.55595">
        <ele>1125.1</ele>
        <time>2020-08-15T10:16:44Z</time>
      </trkpt>
      <trkpt lat="45.54097" lon="3.55707">
        <ele>1124.7</ele>
        <time>2020-08-15T10:17:31Z</time>
      </trkpt>
      <trkpt lat="45.54086" lon="3.55844">
        <ele>1124.3</ele>
        <time>2020-08-15T10:18:19Z</time>
      </trkpt>
      <trkpt lat="45.54091" lon="3.56005">
        <ele>1123.6</ele>
        <time>2020-08-15T10:18:49Z</time>
      </trkpt>
      <trkpt lat="45.54118" lon="3.56138">
        <ele>1123.4</ele>
        <time>2020-08-15T10:19:14Z</time>
      </trkpt>
      <trkpt lat="45.54136" lon="3.5627">
        <ele>1123.3</ele>
        <time>2020-08-15T10:19:39Z</time>
      </trkpt>
      <trkpt lat="45.54097" lon="3.56386">
        <ele>1123.2</ele>
        <time>2020-08-15T10:20:04Z</time>
      </trkpt>
      <trkpt lat="45.54009" lon="3.56443">
        <ele>1123.5</ele>
        <time>2020-08-15T10:20:34Z</time>
      </trkpt>
      <trkpt lat="45.53919" lon="3.56484">
        <ele>1123.9</ele>
        <time>2020-08-15T10:21:04Z</time>
      </trkpt>
      <trkpt lat="45.5383" lon="3.56517">
        <ele>1124.8</ele>
        <time>2020-08-15T10:21:39Z</time>
      </trkpt>
      <trkpt lat="45.53737" lon="3.56508">
        <ele>1126.4</ele>
        <time>2020-08-15T10:22:14Z</time>
      </trkpt>
      <trkpt lat="45.53632" lon="3.5655">
        <ele>1128.7</ele>
        <time>2020-08-15T10:22:49Z</time>
      </trkpt>
      <trkpt lat="45.53523" lon="3.56626">
        <ele>1130.3</ele>
        <time>2020-08-15T10:23:09Z</time>
      </trkpt>
      <trkpt lat="45.53429" lon="3.56686">
        <ele>1129.6</ele>
        <time>2020-08-15T10:23:24Z</time>
      </trkpt>
      <trkpt lat="45.53339" lon="3.5675">
        <ele>1128.6</ele>
        <time>2020-08-15T10:23:49Z</time>
      </trkpt>
      <trkpt lat="45.53251" lon="3.56789">
        <ele>1129</ele>
        <time>2020-08-15T10:24:24Z</time>
      </trkpt>
      <trkpt lat="45.53141" lon="3.56829">
        <ele>1130.4</ele>
        <time>2020-08-15T10:24:59Z</time>
      </trkpt>
      <trkpt lat="45.53024" lon="3.56872">
        <ele>1129.6</ele>
        <time>2020-08-15T10:25:14Z</time>
      </trkpt>
      <trkpt lat="45.52928" lon="3.5692">
        <ele>1125.8</ele>
        <time>2020-08-15T10:25:29Z</time>
      </trkpt>
      <trkpt lat="45.52828" lon="3.5699">
        <ele>1123.1</ele>
        <time>2020-08-15T10:25:44Z</time>
      </trkpt>
      <trkpt lat="45.52746" lon="3.57051">
        <ele>1122.5</ele>
        <time>2020-08-15T10:26:19Z</time>
      </trkpt>
      <trkpt lat="45.52649" lon="3.57071">
        <ele>1117.8</ele>
        <time>2020-08-15T10:26:39Z</time>
      </trkpt>
      <trkpt lat="45.52556" lon="3.57062">
        <ele>1117.1</ele>
        <time>2020-08-15T10:26:59Z</time>
      </trkpt>
      <trkpt lat="45.5248" lon="3.57146">
        <ele>1116.5</ele>
        <time>2020-08-15T10:27:14Z</time>
      </trkpt>
      <trkpt lat="45.52403" lon="3.57214">
        <ele>1115.7</ele>
        <time>2020-08-15T10:27:29Z</time>
      </trkpt>
      <trkpt lat="45.52326" lon="3.57285">
        <ele>1115.4</ele>
        <time>2020-08-15T10:27:54Z</time>
      </trkpt>
      <trkpt lat="45.52242" lon="3.57357">
        <ele>1113.2</ele>
        <time>2020-08-15T10:28:19Z</time>
      </trkpt>
      <trkpt lat="45.52139" lon="3.57387">
        <ele>1112.5</ele>
        <time>2020-08-15T10:28:39Z</time>
      </trkpt>
      <trkpt lat="45.5205" lon="3.5746">
        <ele>1110.6</ele>
        <time>2020-08-15T10:28:54Z</time>
      </trkpt>
      <trkpt lat="45.51963" lon="3.57534">
        <ele>1106.3</ele>
        <time>2020-08-15T10:29:14Z</time>
      </trkpt>
      <trkpt lat="45.51928" lon="3.57669">
        <ele>1103.8</ele>
        <time>2020-08-15T10:29:34Z</time>
      </trkpt>
      <trkpt lat="45.51941" lon="3.57834">
        <ele>1100.9</ele>
        <time>2020-08-15T10:29:54Z</time>
      </trkpt>
      <trkpt lat="45.51963" lon="3.57963">
        <ele>1097.7</ele>
        <time>2020-08-15T10:30:04Z</time>
      </trkpt>
      <trkpt lat="45.52004" lon="3.58132">
        <ele>1095.4</ele>
        <time>2020-08-15T10:30:19Z</time>
      </trkpt>
      <trkpt lat="45.52037" lon="3.5827">
        <ele>1091.1</ele>
        <time>2020-08-15T10:30:39Z</time>
      </trkpt>
      <trkpt lat="45.51974" lon="3.58402">
        <ele>1085.9</ele>
        <time>2020-08-15T10:30:54Z</time>
      </trkpt>
      <trkpt lat="45.51914" lon="3.58548">
        <ele>1081.8</ele>
        <time>2020-08-15T10:31:09Z</time>
      </trkpt>
      <trkpt lat="45.51854" lon="3.58666">
        <ele>1075.8</ele>
        <time>2020-08-15T10:31:24Z</time>
      </trkpt>
      <trkpt lat="45.51825" lon="3.58797">
        <ele>1072.3</ele>
        <time>2020-08-15T10:32:00Z</time>
      </trkpt>
      <trkpt lat="45.5173" lon="3.58843">
        <ele>1059.3</ele>
        <time>2020-08-15T11:45:53Z</time>
      </trkpt>
      <trkpt lat="45.51648" lon="3.58782">
        <ele>1058.8</ele>
        <time>2020-08-15T11:46:28Z</time>
      </trkpt>
      <trkpt lat="45.51545" lon="3.58815">
        <ele>1057.1</ele>
        <time>2020-08-15T11:46:48Z</time>
      </trkpt>
      <trkpt lat="45.51431" lon="3.58833">
        <ele>1052.8</ele>
        <time>2020-08-15T11:47:08Z</time>
      </trkpt>
      <trkpt lat="45.51306" lon="3.58862">
        <ele>1051.1</ele>
        <time>2020-08-15T11:47:23Z</time>
      </trkpt>
      <trkpt lat="45.51215" lon="3.58847">
        <ele>1051.2</ele>
        <time>2020-08-15T11:47:38Z</time>
      </trkpt>
      <trkpt lat="45.51122" lon="3.58846">
        <ele>1050.8</ele>
        <time>2020-08-15T11:48:20Z</time>
      </trkpt>
      <trkpt lat="45.51028" lon="3.58889">
        <ele>1050.6</ele>
        <time>2020-08-15T11:49:17Z</time>
      </trkpt>
      <trkpt lat="45.50946" lon="3.58812">
        <ele>1049.5</ele>
        <time>2020-08-15T11:50:08Z</time>
      </trkpt>
      <trkpt lat="45.50902" lon="3.58665">
        <ele>1047.4</ele>
        <time>2020-08-15T11:50:43Z</time>
      </trkpt>
      <trkpt lat="45.50815" lon="3.5859">
        <ele>1044.6</ele>
        <time>2020-08-15T11:50:58Z</time>
      </trkpt>
      <trkpt lat="45.50718" lon="3.58505">
        <ele>1043.9</ele>
        <time>2020-08-15T11:51:13Z</time>
      </trkpt>
      <trkpt lat="45.50602" lon="3.58445">
        <ele>1042</ele>
        <time>2020-08-15T11:51:28Z</time>
      </trkpt>
      <trkpt lat="45.50499" lon="3.58436">
        <ele>1042.3</ele>
        <time>2020-08-15T11:51:43Z</time>
      </trkpt>
      <trkpt lat="45.50416" lon="3.58484">
        <ele>1040.6</ele>
        <time>2020-08-15T11:52:19Z</time>
      </trkpt>
      <trkpt lat="45.50393" lon="3.58617">
        <ele>1041.5</ele>
        <time>2020-08-15T11:53:18Z</time>
      </trkpt>
      <trkpt lat="45.50403" lon="3.58756">
        <ele>1044.2</ele>
        <time>2020-08-15T11:54:17Z</time>
      </trkpt>
      <trkpt lat="45.50365" lon="3.58882">
        <ele>1047.1</ele>
        <time>2020-08-15T11:55:17Z</time>
      </trkpt>
      <trkpt lat="45.50266" lon="3.58881">
        <ele>1049.8</ele>
        <time>2020-08-15T11:56:09Z</time>
      </trkpt>
      <trkpt lat="45.50181" lon="3.58806">
        <ele>1051.4</ele>
        <time>2020-08-15T11:56:54Z</time>
      </trkpt>
      <trkpt lat="45.50131" lon="3.58689">
        <ele>1053.4</ele>
        <time>2020-08-15T11:57:47Z</time>
      </trkpt>
      <trkpt lat="45.50068" lon="3.58586">
        <ele>1055.8</ele>
        <time>2020-08-15T11:58:43Z</time>
      </trkpt>
      <trkpt lat="45.49976" lon="3.58535">
        <ele>1058</ele>
        <time>2020-08-15T11:59:37Z</time>
      </trkpt>
      <trkpt lat="45.49906" lon="3.58449">
        <ele>1059.9</ele>
        <time>2020-08-15T12:00:25Z</time>
      </trkpt>
      <trkpt lat="45.49811" lon="3.58427">
        <ele>1061.4</ele>
        <time>2020-08-15T12:01:00Z</time>
      </trkpt>
      <trkpt lat="45.49725" lon="3.58461">
        <ele>1062.8</ele>
        <time>2020-08-15T12:01:36Z</time>
      </trkpt>
      <trkpt lat="45.49622" lon="3.58504">
        <ele>1065</ele>
        <time>2020-08-15T12:02:16Z</time>
      </trkpt>
      <trkpt lat="45.49556" lon="3.58609">
        <ele>1065.8</ele>
        <time>2020-08-15T12:02:46Z</time>
      </trkpt>
      <trkpt lat="45.49495" lon="3.58709">
        <ele>1066.7</ele>
        <time>2020-08-15T12:03:16Z</time>
      </trkpt>
      <trkpt lat="45.49417" lon="3.58802">
        <ele>1068.9</ele>
        <time>2020-08-15T12:03:41Z</time>
      </trkpt>
      <trkpt lat="45.49323" lon="3.58852">
        <ele>1069.5</ele>
        <time>2020-08-15T12:03:56Z</time>
      </trkpt>
      <trkpt lat="45.49232" lon="3.58878">
        <ele>1070.9</ele>
        <time>2020-08-15T12:04:11Z</time>
      </trkpt>
      <trkpt lat="45.49134" lon="3.589">
        <ele>1074.9</ele>
        <time>2020-08-15T12:04:31Z</time>
      </trkpt>
      <trkpt lat="45.49053" lon="3.58835">
        <ele>1074.3</ele>
        <time>2020-08-15T12:05:02Z</time>
      </trkpt>
      <trkpt lat="45.48976" lon="3.58745">
        <ele>1082.3</ele>
        <time>2020-08-15T12:06:01Z</time>
      </trkpt>
      <trkpt lat="45.48903" lon="3.58661">
        <ele>1087.4</ele>
        <time>2020-08-15T12:06:47Z</time>
      </trkpt>
      <trkpt lat="45.48814" lon="3.58589">
        <ele>1091.6</ele>
        <time>2020-08-15T12:07:22Z</time>
      </trkpt>
      <trkpt lat="45.48722" lon="3.58521">
        <ele>1094.3</ele>
        <time>2020-08-15T12:07:47Z</time>
      </trkpt>
      <trkpt lat="45.48663" lon="3.58403">
        <ele>1094</ele>
        <time>2020-08-15T12:08:31Z</time>
      </trkpt>
      <trkpt lat="45.48635" lon="3.5827">
        <ele>1098.8</ele>
        <time>2020-08-15T12:09:29Z</time>
      </trkpt>
      <trkpt lat="45.48561" lon="3.58166">
        <ele>1101.8</ele>
        <time>2020-08-15T12:10:09Z</time>
      </trkpt>
      <trkpt lat="45.48474" lon="3.58099">
        <ele>1103.3</ele>
        <time>2020-08-15T12:10:44Z</time>
      </trkpt>
      <trkpt lat="45.48388" lon="3.58033">
        <ele>1104.3</ele>
        <time>2020-08-15T12:11:19Z</time>
      </trkpt>
      <trkpt lat="45.48295" lon="3.57957">
        <ele>1105.2</ele>
        <time>2020-08-15T12:11:54Z</time>
      </trkpt>
      <trkpt lat="45.48219" lon="3.57869">
        <ele>1106</ele>
        <time>2020-08-15T12:12:24Z</time>
      </trkpt>
      <trkpt lat="45.48156" lon="3.57763">
        <ele>1106.8</ele>
        <time>2020-08-15T12:13:04Z</time>
      </trkpt>
      <trkpt lat="45.4809" lon="3.57657">
        <ele>1107.9</ele>
        <time>2020-08-15T12:13:44Z</time>
      </trkpt>
      <trkpt lat="45.48028" lon="3.57557">
        <ele>1109.1</ele>
        <time>2020-08-15T12:14:19Z</time>
      </trkpt>
      <trkpt lat="45.47963" lon="3.5745">
        <ele>1110.9</ele>
        <time>2020-08-15T12:15:20Z</time>
      </trkpt>
      <trkpt lat="45.47907" lon="3.57339">
        <ele>1112.3</ele>
        <time>2020-08-15T12:16:01Z</time>
      </trkpt>
      <trkpt lat="45.47841" lon="3.5724">
        <ele>1114</ele>
        <time>2020-08-15T12:16:47Z</time>
      </trkpt>
      <trkpt lat="45.47766" lon="3.57149">
        <ele>1115.6</ele>
        <time>2020-08-15T12:17:32Z</time>
      </trkpt>
      <trkpt lat="45.47707" lon="3.57029">
        <ele>1116.8</ele>
        <time>2020-08-15T12:18:11Z</time>
      </trkpt>
      <trkpt lat="45.47662" lon="3.56914">
        <ele>1118</ele>
        <time>2020-08-15T12:18:46Z</time>
      </trkpt>
      <trkpt lat="45.47632" lon="3.56773">
        <ele>1119.6</ele>
        <time>2020-08-15T12:19:21Z</time>
      </trkpt>
      <trkpt lat="45.47615" lon="3.56629">
        <ele>1121.2</ele>
        <time>2020-08-15T12:19:56Z</time>
      </trkpt>
      <trkpt lat="45.47592" lon="3.56489">
        <ele>1125.2</ele>
        <time>2020-08-15T12:20:56Z</time>
      </trkpt>
      <trkpt lat="45.47533" lon="3.5638">
        <ele>1138.7</ele>
        <time>2020-08-15T12:26:17Z</time>
      </trkpt>
      <trkpt lat="45.47447" lon="3.56319">
        <ele>1143.3</ele>
        <time>2020-08-15T12:26:48Z</time>
      </trkpt>
      <trkpt lat="45.47351" lon="3.56308">
        <ele>1145</ele>
        <time>2020-08-15T12:27:03Z</time>
      </trkpt>
      <trkpt lat="45.47247" lon="3.56265">
        <ele>1144.8</ele>
        <time>2020-08-15T12:27:13Z</time>
      </trkpt>
      <trkpt lat="45.47134" lon="3.56159">
        <ele>1141.8</ele>
        <time>2020-08-15T12:27:23Z</time>
      </trkpt>
      <trkpt lat="45.47047" lon="3.5605">
        <ele>1138.9</ele>
        <time>2020-08-15T12:27:33Z</time>
      </trkpt>
      <trkpt lat="45.46963" lon="3.55903">
        <ele>1134.4</ele>
        <time>2020-08-15T12:27:48Z</time>
      </trkpt>
      <trkpt lat="45.46884" lon="3.55758">
        <ele>1130.3</ele>
        <time>2020-08-15T12:28:03Z</time>
      </trkpt>
      <trkpt lat="45.46812" lon="3.55614">
        <ele>1126.2</ele>
        <time>2020-08-15T12:28:18Z</time>
      </trkpt>
      <trkpt lat="45.46759" lon="3.5548">
        <ele>1122.8</ele>
        <time>2020-08-15T12:28:28Z</time>
      </trkpt>
      <trkpt lat="45.46683" lon="3.55332">
        <ele>1116.1</ele>
        <time>2020-08-15T12:28:38Z</time>
      </trkpt>
      <trkpt lat="45.46615" lon="3.55182">
        <ele>1112.1</ele>
        <time>2020-08-15T12:28:48Z</time>
      </trkpt>
      <trkpt lat="45.46532" lon="3.55093">
        <ele>1108</ele>
        <time>2020-08-15T12:28:58Z</time>
      </trkpt>
      <trkpt lat="45.46434" lon="3.55043">
        <ele>1103.8</ele>
        <time>2020-08-15T12:29:08Z</time>
      </trkpt>
      <trkpt lat="45.46346" lon="3.54973">
        <ele>1100.9</ele>
        <time>2020-08-15T12:29:23Z</time>
      </trkpt>
      <trkpt lat="45.46257" lon="3.5489">
        <ele>1093.9</ele>
        <time>2020-08-15T12:29:43Z</time>
      </trkpt>
      <trkpt lat="45.46202" lon="3.54757">
        <ele>1089.3</ele>
        <time>2020-08-15T12:29:58Z</time>
      </trkpt>
      <trkpt lat="45.46163" lon="3.54635">
        <ele>1087.3</ele>
        <time>2020-08-15T12:30:36Z</time>
      </trkpt>
      <trkpt lat="45.4611" lon="3.54527">
        <ele>1085.9</ele>
        <time>2020-08-15T12:31:26Z</time>
      </trkpt>
      <trkpt lat="45.46045" lon="3.54423">
        <ele>1078.4</ele>
        <time>2020-08-15T12:32:50Z</time>
      </trkpt>
      <trkpt lat="45.46038" lon="3.54282">
        <ele>1076.9</ele>
        <time>2020-08-15T12:33:20Z</time>
      </trkpt>
      <trkpt lat="45.45974" lon="3.54187">
        <ele>1077.4</ele>
        <time>2020-08-15T12:34:10Z</time>
      </trkpt>
      <trkpt lat="45.45905" lon="3.54087">
        <ele>1077.1</ele>
        <time>2020-08-15T12:35:03Z</time>
      </trkpt>
      <trkpt lat="45.45883" lon="3.53949">
        <ele>1077.5</ele>
        <time>2020-08-15T12:35:58Z</time>
      </trkpt>
      <trkpt lat="45.45931" lon="3.53833">
        <ele>1078.3</ele>
        <time>2020-08-15T12:36:56Z</time>
      </trkpt>
      <trkpt lat="45.4599" lon="3.53726">
        <ele>1079.6</ele>
        <time>2020-08-15T12:37:56Z</time>
      </trkpt>
      <trkpt lat="45.46059" lon="3.53645">
        <ele>1082.2</ele>
        <time>2020-08-15T12:39:02Z</time>
      </trkpt>
      <trkpt lat="45.46146" lon="3.53707">
        <ele>1085.8</ele>
        <time>2020-08-15T12:40:01Z</time>
      </trkpt>
      <trkpt lat="45.46239" lon="3.53664">
        <ele>1088.9</ele>
        <time>2020-08-15T12:40:58Z</time>
      </trkpt>
      <trkpt lat="45.46281" lon="3.53547">
        <ele>1091.9</ele>
        <time>2020-08-15T12:41:59Z</time>
      </trkpt>
      <trkpt lat="45.46304" lon="3.53417">
        <ele>1094.3</ele>
        <time>2020-08-15T12:42:35Z</time>
      </trkpt>
      <trkpt lat="45.46228" lon="3.53306">
        <ele>1095.7</ele>
        <time>2020-08-15T12:42:54Z</time>
      </trkpt>
      <trkpt lat="45.46163" lon="3.53149">
        <ele>1095.2</ele>
        <time>2020-08-15T12:43:09Z</time>
      </trkpt>
      <trkpt lat="45.46159" lon="3.52995">
        <ele>1095.1</ele>
        <time>2020-08-15T12:43:24Z</time>
      </trkpt>
      <trkpt lat="45.46072" lon="3.5289">
        <ele>1093.8</ele>
        <time>2020-08-15T12:45:42Z</time>
      </trkpt>
      <trkpt lat="45.45972" lon="3.52778">
        <ele>1092</ele>
        <time>2020-08-15T12:45:57Z</time>
      </trkpt>
      <trkpt lat="45.45887" lon="3.52627">
        <ele>1088</ele>
        <time>2020-08-15T12:46:12Z</time>
      </trkpt>
      <trkpt lat="45.45896" lon="3.5249">
        <ele>1083.9</ele>
        <time>2020-08-15T12:46:22Z</time>
      </trkpt>
      <trkpt lat="45.45898" lon="3.52356">
        <ele>1083.6</ele>
        <time>2020-08-15T12:46:32Z</time>
      </trkpt>
      <trkpt lat="45.45837" lon="3.52249">
        <ele>1081</ele>
        <time>2020-08-15T12:46:42Z</time>
      </trkpt>
      <trkpt lat="45.45796" lon="3.52089">
        <ele>1081.4</ele>
        <time>2020-08-15T12:46:57Z</time>
      </trkpt>
      <trkpt lat="45.45794" lon="3.51936">
        <ele>1076.2</ele>
        <time>2020-08-15T12:47:12Z</time>
      </trkpt>
      <trkpt lat="45.45775" lon="3.51767">
        <ele>1070.7</ele>
        <time>2020-08-15T12:47:27Z</time>
      </trkpt>
      <trkpt lat="45.45712" lon="3.51647">
        <ele>1071.1</ele>
        <time>2020-08-15T12:47:47Z</time>
      </trkpt>
      <trkpt lat="45.45616" lon="3.51606">
        <ele>1073.2</ele>
        <time>2020-08-15T12:48:32Z</time>
      </trkpt>
      <trkpt lat="45.45527" lon="3.51559">
        <ele>1073.2</ele>
        <time>2020-08-15T12:49:23Z</time>
      </trkpt>
      <trkpt lat="45.45523" lon="3.51412">
        <ele>1071.9</ele>
        <time>2020-08-15T12:49:59Z</time>
      </trkpt>
      <trkpt lat="45.45557" lon="3.51282">
        <ele>1070.7</ele>
        <time>2020-08-15T12:50:19Z</time>
      </trkpt>
      <trkpt lat="45.45551" lon="3.51131">
        <ele>1069.4</ele>
        <time>2020-08-15T12:50:39Z</time>
      </trkpt>
      <trkpt lat="45.45484" lon="3.51021">
        <ele>1070.4</ele>
        <time>2020-08-15T12:51:09Z</time>
      </trkpt>
      <trkpt lat="45.45398" lon="3.5095">
        <ele>1072.2</ele>
        <time>2020-08-15T12:52:03Z</time>
      </trkpt>
      <trkpt lat="45.45306" lon="3.50916">
        <ele>1074</ele>
        <time>2020-08-15T12:53:06Z</time>
      </trkpt>
      <trkpt lat="45.45228" lon="3.50839">
        <ele>1074.7</ele>
        <time>2020-08-15T12:53:56Z</time>
      </trkpt>
      <trkpt lat="45.4513" lon="3.50842">
        <ele>1076</ele>
        <time>2020-08-15T12:54:53Z</time>
      </trkpt>
      <trkpt lat="45.45048" lon="3.50784">
        <ele>1077.9</ele>
        <time>2020-08-15T12:55:40Z</time>
      </trkpt>
      <trkpt lat="45.44973" lon="3.50693">
        <ele>1079.9</ele>
        <time>2020-08-15T12:56:31Z</time>
      </trkpt>
      <trkpt lat="45.44909" lon="3.50577">
        <ele>1080.9</ele>
        <time>2020-08-15T12:57:11Z</time>
      </trkpt>
      <trkpt lat="45.4485" lon="3.50476">
        <ele>1082.4</ele>
        <time>2020-08-15T12:57:36Z</time>
      </trkpt>
      <trkpt lat="45.44749" lon="3.50383">
        <ele>1082.8</ele>
        <time>2020-08-15T12:57:56Z</time>
      </trkpt>
      <trkpt lat="45.44636" lon="3.50319">
        <ele>1083.1</ele>
        <time>2020-08-15T12:58:11Z</time>
      </trkpt>
      <trkpt lat="45.44544" lon="3.50282">
        <ele>1079.7</ele>
        <time>2020-08-15T12:58:21Z</time>
      </trkpt>
      <trkpt lat="45.44454" lon="3.50241">
        <ele>1078.9</ele>
        <time>2020-08-15T12:58:31Z</time>
      </trkpt>
      <trkpt lat="45.44351" lon="3.5025">
        <ele>1072</ele>
        <time>2020-08-15T12:58:41Z</time>
      </trkpt>
      <trkpt lat="45.44291" lon="3.50149">
        <ele>1072.3</ele>
        <time>2020-08-15T12:59:11Z</time>
      </trkpt>
      <trkpt lat="45.44324" lon="3.50029">
        <ele>1077.4</ele>
        <time>2020-08-15T12:59:52Z</time>
      </trkpt>
      <trkpt lat="45.44259" lon="3.49904">
        <ele>1085.3</ele>
        <time>2020-08-15T13:00:33Z</time>
      </trkpt>
      <trkpt lat="45.4419" lon="3.49799">
        <ele>1086.4</ele>
        <time>2020-08-15T13:00:48Z</time>
      </trkpt>
      <trkpt lat="45.4412" lon="3.49682">
        <ele>1082.6</ele>
        <time>2020-08-15T13:01:08Z</time>
      </trkpt>
      <trkpt lat="45.4402" lon="3.49639">
        <ele>1075</ele>
        <time>2020-08-15T13:01:23Z</time>
      </trkpt>
      <trkpt lat="45.43913" lon="3.49676">
        <ele>1071</ele>
        <time>2020-08-15T13:01:38Z</time>
      </trkpt>
      <trkpt lat="45.43867" lon="3.49531">
        <ele>1069.3</ele>
        <time>2020-08-15T13:01:53Z</time>
      </trkpt>
      <trkpt lat="45.43841" lon="3.49364">
        <ele>1067.9</ele>
        <time>2020-08-15T13:02:08Z</time>
      </trkpt>
      <trkpt lat="45.4383" lon="3.49197">
        <ele>1066.7</ele>
        <time>2020-08-15T13:02:23Z</time>
      </trkpt>
      <trkpt lat="45.43858" lon="3.49052">
        <ele>1065.4</ele>
        <time>2020-08-15T13:02:38Z</time>
      </trkpt>
      <trkpt lat="45.43893" lon="3.48926">
        <ele>1064.4</ele>
        <time>2020-08-15T13:03:24Z</time>
      </trkpt>
      <trkpt lat="45.43825" lon="3.48834">
        <ele>1062.3</ele>
        <time>2020-08-15T13:07:36Z</time>
      </trkpt>
      <trkpt lat="45.43751" lon="3.48969">
        <ele>1058.8</ele>
        <time>2020-08-15T13:07:51Z</time>
      </trkpt>
      <trkpt lat="45.43666" lon="3.49101">
        <ele>1056.1</ele>
        <time>2020-08-15T13:08:06Z</time>
      </trkpt>
      <trkpt lat="45.43628" lon="3.48953">
        <ele>1049.2</ele>
        <time>2020-08-15T13:08:21Z</time>
      </trkpt>
      <trkpt lat="45.43593" lon="3.48806">
        <ele>1045.4</ele>
        <time>2020-08-15T13:08:31Z</time>
      </trkpt>
      <trkpt lat="45.43628" lon="3.48654">
        <ele>1038.9</ele>
        <time>2020-08-15T13:08:41Z</time>
      </trkpt>
      <trkpt lat="45.43646" lon="3.48511">
        <ele>1030.3</ele>
        <time>2020-08-15T13:08:51Z</time>
      </trkpt>
      <trkpt lat="45.43612" lon="3.48344">
        <ele>1026.3</ele>
        <time>2020-08-15T13:09:01Z</time>
      </trkpt>
      <trkpt lat="45.43521" lon="3.48246">
        <ele>1019</ele>
        <time>2020-08-15T13:09:11Z</time>
      </trkpt>
      <trkpt lat="45.43507" lon="3.48098">
        <ele>1011.8</ele>
        <time>2020-08-15T13:09:21Z</time>
      </trkpt>
      <trkpt lat="45.4348" lon="3.47968">
        <ele>1005.7</ele>
        <time>2020-08-15T13:09:31Z</time>
      </trkpt>
      <trkpt lat="45.43417" lon="3.4786">
        <ele>1000.8</ele>
        <time>2020-08-15T13:10:01Z</time>
      </trkpt>
      <trkpt lat="45.43321" lon="3.47802">
        <ele>991.4</ele>
        <time>2020-08-15T13:10:41Z</time>
      </trkpt>
      <trkpt lat="45.43252" lon="3.47695">
        <ele>988</ele>
        <time>2020-08-15T13:11:11Z</time>
      </trkpt>
      <trkpt lat="45.43186" lon="3.476">
        <ele>987.8</ele>
        <time>2020-08-15T13:11:41Z</time>
      </trkpt>
      <trkpt lat="45.43155" lon="3.47461">
        <ele>985.5</ele>
        <time>2020-08-15T13:12:01Z</time>
      </trkpt>
      <trkpt lat="45.43119" lon="3.47326">
        <ele>982.9</ele>
        <time>2020-08-15T13:12:16Z</time>
      </trkpt>
      <trkpt lat="45.4307" lon="3.47177">
        <ele>981.2</ele>
        <time>2020-08-15T13:12:31Z</time>
      </trkpt>
      <trkpt lat="45.43" lon="3.47033">
        <ele>978.2</ele>
        <time>2020-08-15T13:12:46Z</time>
      </trkpt>
      <trkpt lat="45.42924" lon="3.46895">
        <ele>972.1</ele>
        <time>2020-08-15T13:13:01Z</time>
      </trkpt>
      <trkpt lat="45.42871" lon="3.46758">
        <ele>967.9</ele>
        <time>2020-08-15T13:13:11Z</time>
      </trkpt>
      <trkpt lat="45.42807" lon="3.46625">
        <ele>964.1</ele>
        <time>2020-08-15T13:13:21Z</time>
      </trkpt>
      <trkpt lat="45.42781" lon="3.46471">
        <ele>961.5</ele>
        <time>2020-08-15T13:13:31Z</time>
      </trkpt>
      <trkpt lat="45.42708" lon="3.46371">
        <ele>954.8</ele>
        <time>2020-08-15T13:13:41Z</time>
      </trkpt>
      <trkpt lat="45.42671" lon="3.4624">
        <ele>944.4</ele>
        <time>2020-08-15T13:13:51Z</time>
      </trkpt>
      <trkpt lat="45.4262" lon="3.46131">
        <ele>935.7</ele>
        <time>2020-08-15T13:14:01Z</time>
      </trkpt>
      <trkpt lat="45.42664" lon="3.45986">
        <ele>919.8</ele>
        <time>2020-08-15T13:14:11Z</time>
      </trkpt>
      <trkpt lat="45.42703" lon="3.45852">
        <ele>910.6</ele>
        <time>2020-08-15T13:14:21Z</time>
      </trkpt>
      <trkpt lat="45.42662" lon="3.45714">
        <ele>903</ele>
        <time>2020-08-15T13:14:31Z</time>
      </trkpt>
      <trkpt lat="45.42561" lon="3.45649">
        <ele>897.5</ele>
        <time>2020-08-15T13:14:41Z</time>
      </trkpt>
      <trkpt lat="45.4249" lon="3.45561">
        <ele>893.2</ele>
        <time>2020-08-15T13:14:51Z</time>
      </trkpt>
      <trkpt lat="45.42461" lon="3.45432">
        <ele>885.1</ele>
        <time>2020-08-15T13:15:01Z</time>
      </trkpt>
      <trkpt lat="45.42427" lon="3.45306">
        <ele>878.2</ele>
        <time>2020-08-15T13:15:11Z</time>
      </trkpt>
      <trkpt lat="45.42325" lon="3.45254">
        <ele>869.3</ele>
        <time>2020-08-15T13:15:26Z</time>
      </trkpt>
      <trkpt lat="45.42241" lon="3.45156">
        <ele>862.3</ele>
        <time>2020-08-15T13:15:41Z</time>
      </trkpt>
      <trkpt lat="45.4216" lon="3.45087">
        <ele>856.7</ele>
        <time>2020-08-15T13:15:51Z</time>
      </trkpt>
      <trkpt lat="45.42055" lon="3.45073">
        <ele>845.1</ele>
        <time>2020-08-15T13:16:06Z</time>
      </trkpt>
      <trkpt lat="45.42015" lon="3.44945">
        <ele>830.8</ele>
        <time>2020-08-15T13:16:41Z</time>
      </trkpt>
      <trkpt lat="45.41929" lon="3.44835">
        <ele>823.4</ele>
        <time>2020-08-15T13:17:01Z</time>
      </trkpt>
      <trkpt lat="45.41873" lon="3.4469">
        <ele>823.1</ele>
        <time>2020-08-15T13:17:21Z</time>
      </trkpt>
      <trkpt lat="45.41825" lon="3.44546">
        <ele>819.8</ele>
        <time>2020-08-15T13:17:36Z</time>
      </trkpt>
      <trkpt lat="45.41702" lon="3.44466">
        <ele>817.3</ele>
        <time>2020-08-15T13:17:51Z</time>
      </trkpt>
      <trkpt lat="45.41648" lon="3.44359">
        <ele>811.4</ele>
        <time>2020-08-15T13:18:01Z</time>
      </trkpt>
      <trkpt lat="45.41571" lon="3.44221">
        <ele>802.4</ele>
        <time>2020-08-15T13:18:16Z</time>
      </trkpt>
      <trkpt lat="45.41503" lon="3.44098">
        <ele>794.5</ele>
        <time>2020-08-15T13:18:31Z</time>
      </trkpt>
      <trkpt lat="45.41454" lon="3.43979">
        <ele>791.8</ele>
        <time>2020-08-15T13:18:56Z</time>
      </trkpt>
      <trkpt lat="45.41443" lon="3.43823">
        <ele>779.8</ele>
        <time>2020-08-15T13:19:26Z</time>
      </trkpt>
      <trkpt lat="45.41399" lon="3.43657">
        <ele>772.3</ele>
        <time>2020-08-15T13:19:42Z</time>
      </trkpt>
      <trkpt lat="45.41396" lon="3.43524">
        <ele>769.2</ele>
        <time>2020-08-15T13:19:57Z</time>
      </trkpt>
      <trkpt lat="45.41328" lon="3.43406">
        <ele>767.5</ele>
        <time>2020-08-15T13:20:27Z</time>
      </trkpt>
      <trkpt lat="45.41245" lon="3.43305">
        <ele>767.1</ele>
        <time>2020-08-15T13:20:57Z</time>
      </trkpt>
      <trkpt lat="45.41167" lon="3.4322">
        <ele>765.5</ele>
        <time>2020-08-15T13:21:22Z</time>
      </trkpt>
      <trkpt lat="45.41174" lon="3.43043">
        <ele>762.2</ele>
        <time>2020-08-15T13:21:42Z</time>
      </trkpt>
      <trkpt lat="45.41176" lon="3.42889">
        <ele>760.6</ele>
        <time>2020-08-15T13:21:57Z</time>
      </trkpt>
      <trkpt lat="45.41119" lon="3.42748">
        <ele>758.5</ele>
        <time>2020-08-15T13:22:12Z</time>
      </trkpt>
      <trkpt lat="45.41108" lon="3.42605">
        <ele>758.7</ele>
        <time>2020-08-15T13:22:27Z</time>
      </trkpt>
      <trkpt lat="45.41183" lon="3.42483">
        <ele>757.2</ele>
        <time>2020-08-15T13:22:42Z</time>
      </trkpt>
      <trkpt lat="45.41268" lon="3.4242">
        <ele>755.2</ele>
        <time>2020-08-15T13:22:57Z</time>
      </trkpt>
      <trkpt lat="45.4137" lon="3.42364">
        <ele>752.9</ele>
        <time>2020-08-15T13:23:17Z</time>
      </trkpt>
      <trkpt lat="45.41299" lon="3.42258">
        <ele>749.9</ele>
        <time>2020-08-15T13:24:14Z</time>
      </trkpt>
      <trkpt lat="45.41203" lon="3.42214">
        <ele>749.1</ele>
        <time>2020-08-15T13:24:34Z</time>
      </trkpt>
      <trkpt lat="45.41114" lon="3.42141">
        <ele>748.1</ele>
        <time>2020-08-15T13:24:54Z</time>
      </trkpt>
      <trkpt lat="45.41208" lon="3.42043">
        <ele>746.8</ele>
        <time>2020-08-15T13:25:14Z</time>
      </trkpt>
      <trkpt lat="45.41275" lon="3.4194">
        <ele>743.6</ele>
        <time>2020-08-15T13:25:29Z</time>
      </trkpt>
      <trkpt lat="45.41243" lon="3.41777">
        <ele>737</ele>
        <time>2020-08-15T13:25:49Z</time>
      </trkpt>
      <trkpt lat="45.41181" lon="3.41632">
        <ele>732.8</ele>
        <time>2020-08-15T13:26:04Z</time>
      </trkpt>
      <trkpt lat="45.41149" lon="3.41505">
        <ele>731.2</ele>
        <time>2020-08-15T13:26:19Z</time>
      </trkpt>
      <trkpt lat="45.41137" lon="3.41362">
        <ele>728.3</ele>
        <time>2020-08-15T13:27:06Z</time>
      </trkpt>
      <trkpt lat="45.41087" lon="3.41217">
        <ele>722.1</ele>
        <time>2020-08-15T13:27:36Z</time>
      </trkpt>
      <trkpt lat="45.4104" lon="3.41067">
        <ele>720.4</ele>
        <time>2020-08-15T13:27:51Z</time>
      </trkpt>
      <trkpt lat="45.41062" lon="3.40923">
        <ele>720.3</ele>
        <time>2020-08-15T13:28:11Z</time>
      </trkpt>
      <trkpt lat="45.41079" lon="3.40797">
        <ele>720</ele>
        <time>2020-08-15T13:28:46Z</time>
      </trkpt>
      <trkpt lat="45.41009" lon="3.40695">
        <ele>717.9</ele>
        <time>2020-08-15T13:29:16Z</time>
      </trkpt>
      <trkpt lat="45.40998" lon="3.4056">
        <ele>716.5</ele>
        <time>2020-08-15T13:29:36Z</time>
      </trkpt>
      <trkpt lat="45.40969" lon="3.40432">
        <ele>715.5</ele>
        <time>2020-08-15T13:29:56Z</time>
      </trkpt>
      <trkpt lat="45.40882" lon="3.40364">
        <ele>715.6</ele>
        <time>2020-08-15T13:35:41Z</time>
      </trkpt>
      <trkpt lat="45.40792" lon="3.403">
        <ele>715.7</ele>
        <time>2020-08-15T13:36:06Z</time>
      </trkpt>
      <trkpt lat="45.4071" lon="3.40219">
        <ele>714.9</ele>
        <time>2020-08-15T13:36:26Z</time>
      </trkpt>
      <trkpt lat="45.40662" lon="3.40095">
        <ele>713.8</ele>
        <time>2020-08-15T13:36:41Z</time>
      </trkpt>
      <trkpt lat="45.40618" lon="3.39922">
        <ele>712.5</ele>
        <time>2020-08-15T13:36:56Z</time>
      </trkpt>
      <trkpt lat="45.40621" lon="3.39784">
        <ele>711.2</ele>
        <time>2020-08-15T13:37:06Z</time>
      </trkpt>
      <trkpt lat="45.4069" lon="3.39678">
        <ele>711</ele>
        <time>2020-08-15T13:37:16Z</time>
      </trkpt>
      <trkpt lat="45.40746" lon="3.39526">
        <ele>710.2</ele>
        <time>2020-08-15T13:37:31Z</time>
      </trkpt>
      <trkpt lat="45.40808" lon="3.39414">
        <ele>707.9</ele>
        <time>2020-08-15T13:37:51Z</time>
      </trkpt>
      <trkpt lat="45.40809" lon="3.39277">
        <ele>703.2</ele>
        <time>2020-08-15T13:38:06Z</time>
      </trkpt>
      <trkpt lat="45.40724" lon="3.3921">
        <ele>694.5</ele>
        <time>2020-08-15T13:38:16Z</time>
      </trkpt>
      <trkpt lat="45.40741" lon="3.39038">
        <ele>688</ele>
        <time>2020-08-15T13:38:31Z</time>
      </trkpt>
      <trkpt lat="45.40791" lon="3.3891">
        <ele>684.2</ele>
        <time>2020-08-15T13:38:41Z</time>
      </trkpt>
      <trkpt lat="45.40684" lon="3.38789">
        <ele>674.4</ele>
        <time>2020-08-15T13:38:56Z</time>
      </trkpt>
      <trkpt lat="45.40635" lon="3.38635">
        <ele>664.3</ele>
        <time>2020-08-15T13:39:11Z</time>
      </trkpt>
      <trkpt lat="45.40613" lon="3.38486">
        <ele>653</ele>
        <time>2020-08-15T13:39:26Z</time>
      </trkpt>
      <trkpt lat="45.40505" lon="3.38399">
        <ele>642.5</ele>
        <time>2020-08-15T13:39:41Z</time>
      </trkpt>
      <trkpt lat="45.40421" lon="3.38269">
        <ele>631.1</ele>
        <time>2020-08-15T13:39:56Z</time>
      </trkpt>
      <trkpt lat="45.40309" lon="3.38189">
        <ele>617.7</ele>
        <time>2020-08-15T13:40:11Z</time>
      </trkpt>
      <trkpt lat="45.40216" lon="3.38137">
        <ele>605.8</ele>
        <time>2020-08-15T13:40:21Z</time>
      </trkpt>
      <trkpt lat="45.40148" lon="3.38038">
        <ele>598</ele>
        <time>2020-08-15T13:40:31Z</time>
      </trkpt>
      <trkpt lat="45.40098" lon="3.37925">
        <ele>591.2</ele>
        <time>2020-08-15T13:40:41Z</time>
      </trkpt>
      <trkpt lat="45.39997" lon="3.37952">
        <ele>579.3</ele>
        <time>2020-08-15T13:41:06Z</time>
      </trkpt>
      <trkpt lat="45.39909" lon="3.38026">
        <ele>571.4</ele>
        <time>2020-08-15T13:41:16Z</time>
      </trkpt>
      <trkpt lat="45.39803" lon="3.38017">
        <ele>561.1</ele>
        <time>2020-08-15T13:41:26Z</time>
      </trkpt>
      <trkpt lat="45.39724" lon="3.37947">
        <ele>555.2</ele>
        <time>2020-08-15T13:41:36Z</time>
      </trkpt>
      <trkpt lat="45.39628" lon="3.37882">
        <ele>546.1</ele>
        <time>2020-08-15T13:41:46Z</time>
      </trkpt>
      <trkpt lat="45.39547" lon="3.37818">
        <ele>540</ele>
        <time>2020-08-15T13:41:56Z</time>
      </trkpt>
      <trkpt lat="45.39474" lon="3.37726">
        <ele>533.6</ele>
        <time>2020-08-15T13:42:06Z</time>
      </trkpt>
      <trkpt lat="45.39483" lon="3.37582">
        <ele>524.4</ele>
        <time>2020-08-15T13:42:16Z</time>
      </trkpt>
      <trkpt lat="45.39419" lon="3.37472">
        <ele>516.6</ele>
        <time>2020-08-15T13:42:26Z</time>
      </trkpt>
      <trkpt lat="45.39349" lon="3.3737">
        <ele>503.5</ele>
        <time>2020-08-15T13:43:11Z</time>
      </trkpt>
      <trkpt lat="45.39299" lon="3.37241">
        <ele>492.1</ele>
        <time>2020-08-15T13:43:36Z</time>
      </trkpt>
      <trkpt lat="45.39227" lon="3.37113">
        <ele>486.4</ele>
        <time>2020-08-15T13:44:06Z</time>
      </trkpt>
      <trkpt lat="45.39187" lon="3.36982">
        <ele>483.8</ele>
        <time>2020-08-15T13:44:26Z</time>
      </trkpt>
      <trkpt lat="45.39149" lon="3.36829">
        <ele>480.6</ele>
        <time>2020-08-15T13:44:51Z</time>
      </trkpt>
      <trkpt lat="45.39094" lon="3.36722">
        <ele>477.2</ele>
        <time>2020-08-15T13:45:06Z</time>
      </trkpt>
      <trkpt lat="45.39062" lon="3.36577">
        <ele>473.7</ele>
        <time>2020-08-15T13:45:26Z</time>
      </trkpt>
      <trkpt lat="45.38984" lon="3.36452">
        <ele>470.8</ele>
        <time>2020-08-15T13:45:46Z</time>
      </trkpt>
      <trkpt lat="45.38907" lon="3.36357">
        <ele>468.2</ele>
        <time>2020-08-15T13:46:06Z</time>
      </trkpt>
      <trkpt lat="45.38833" lon="3.36268">
        <ele>465.5</ele>
        <time>2020-08-15T13:46:26Z</time>
      </trkpt>
      <trkpt lat="45.38751" lon="3.36197">
        <ele>466.1</ele>
        <time>2020-08-15T13:46:51Z</time>
      </trkpt>
      <trkpt lat="45.38686" lon="3.36053">
        <ele>465</ele>
        <time>2020-08-15T13:47:16Z</time>
      </trkpt>
      <trkpt lat="45.38641" lon="3.35899">
        <ele>463.2</ele>
        <time>2020-08-15T13:47:36Z</time>
      </trkpt>
      <trkpt lat="45.38598" lon="3.35753">
        <ele>462.9</ele>
        <time>2020-08-15T13:48:01Z</time>
      </trkpt>
      <trkpt lat="45.38558" lon="3.35626">
        <ele>462.2</ele>
        <time>2020-08-15T13:48:26Z</time>
      </trkpt>
      <trkpt lat="45.38462" lon="3.35638">
        <ele>460.3</ele>
        <time>2020-08-15T13:48:46Z</time>
      </trkpt>
      <trkpt lat="45.38345" lon="3.35606">
        <ele>459</ele>
        <time>2020-08-15T13:49:06Z</time>
      </trkpt>
      <trkpt lat="45.38235" lon="3.35578">
        <ele>457.6</ele>
        <time>2020-08-15T13:49:26Z</time>
      </trkpt>
      <trkpt lat="45.38137" lon="3.3554">
        <ele>458.1</ele>
        <time>2020-08-15T13:49:46Z</time>
      </trkpt>
      <trkpt lat="45.38044" lon="3.35508">
        <ele>459.3</ele>
        <time>2020-08-15T13:50:11Z</time>
      </trkpt>
      <trkpt lat="45.37943" lon="3.35493">
        <ele>460.6</ele>
        <time>2020-08-15T13:50:36Z</time>
      </trkpt>
      <trkpt lat="45.37849" lon="3.35497">
        <ele>460.5</ele>
        <time>2020-08-15T13:50:56Z</time>
      </trkpt>
      <trkpt lat="45.37765" lon="3.3555">
        <ele>460.3</ele>
        <time>2020-08-15T13:51:16Z</time>
      </trkpt>
      <trkpt lat="45.37661" lon="3.35568">
        <ele>459.3</ele>
        <time>2020-08-15T13:51:41Z</time>
      </trkpt>
      <trkpt lat="45.37574" lon="3.35489">
        <ele>458.8</ele>
        <time>2020-08-15T13:52:06Z</time>
      </trkpt>
      <trkpt lat="45.37506" lon="3.35372">
        <ele>457.3</ele>
        <time>2020-08-15T13:52:26Z</time>
      </trkpt>
      <trkpt lat="45.37472" lon="3.35243">
        <ele>457.7</ele>
        <time>2020-08-15T13:52:46Z</time>
      </trkpt>
      <trkpt lat="45.37454" lon="3.35101">
        <ele>458.8</ele>
        <time>2020-08-15T13:53:11Z</time>
      </trkpt>
      <trkpt lat="45.3745" lon="3.34972">
        <ele>459.5</ele>
        <time>2020-08-15T13:53:36Z</time>
      </trkpt>
      <trkpt lat="45.37404" lon="3.34852">
        <ele>460.4</ele>
        <time>2020-08-15T13:54:16Z</time>
      </trkpt>
      <trkpt lat="45.37387" lon="3.34714">
        <ele>461.3</ele>
        <time>2020-08-15T13:54:51Z</time>
      </trkpt>
      <trkpt lat="45.37298" lon="3.34634">
        <ele>460.3</ele>
        <time>2020-08-15T13:55:26Z</time>
      </trkpt>
      <trkpt lat="45.37211" lon="3.3467">
        <ele>458.6</ele>
        <time>2020-08-15T13:55:41Z</time>
      </trkpt>
      <trkpt lat="45.3711" lon="3.34702">
        <ele>457.3</ele>
        <time>2020-08-15T13:55:56Z</time>
      </trkpt>
      <trkpt lat="45.37014" lon="3.34739">
        <ele>456.5</ele>
        <time>2020-08-15T13:56:10Z</time>
      </trkpt>
      <trkpt lat="45.36927" lon="3.34784">
        <ele>456</ele>
        <time>2020-08-15T13:56:25Z</time>
      </trkpt>
      <trkpt lat="45.36827" lon="3.34858">
        <ele>455.9</ele>
        <time>2020-08-15T13:56:45Z</time>
      </trkpt>
      <trkpt lat="45.36736" lon="3.34927">
        <ele>455.6</ele>
        <time>2020-08-15T13:57:05Z</time>
      </trkpt>
      <trkpt lat="45.36656" lon="3.35004">
        <ele>455.2</ele>
        <time>2020-08-15T13:57:25Z</time>
      </trkpt>
      <trkpt lat="45.36574" lon="3.35069">
        <ele>455.1</ele>
        <time>2020-08-15T13:57:45Z</time>
      </trkpt>
      <trkpt lat="45.36486" lon="3.35107">
        <ele>455.4</ele>
        <time>2020-08-15T13:58:05Z</time>
      </trkpt>
      <trkpt lat="45.36386" lon="3.35155">
        <ele>455.7</ele>
        <time>2020-08-15T13:58:30Z</time>
      </trkpt>
      <trkpt lat="45.36285" lon="3.35211">
        <ele>456.8</ele>
        <time>2020-08-15T13:58:55Z</time>
      </trkpt>
      <trkpt lat="45.36181" lon="3.35264">
        <ele>456.4</ele>
        <time>2020-08-15T13:59:15Z</time>
      </trkpt>
      <trkpt lat="45.36084" lon="3.35319">
        <ele>456.3</ele>
        <time>2020-08-15T13:59:35Z</time>
      </trkpt>
      <trkpt lat="45.35992" lon="3.35368">
        <ele>456.4</ele>
        <time>2020-08-15T13:59:55Z</time>
      </trkpt>
      <trkpt lat="45.35899" lon="3.35401">
        <ele>456.4</ele>
        <time>2020-08-15T14:00:15Z</time>
      </trkpt>
      <trkpt lat="45.35809" lon="3.35447">
        <ele>456.5</ele>
        <time>2020-08-15T14:00:35Z</time>
      </trkpt>
      <trkpt lat="45.35725" lon="3.35511">
        <ele>456.6</ele>
        <time>2020-08-15T14:00:55Z</time>
      </trkpt>
      <trkpt lat="45.3563" lon="3.35551">
        <ele>456.9</ele>
        <time>2020-08-15T14:01:15Z</time>
      </trkpt>
      <trkpt lat="45.35535" lon="3.35597">
        <ele>457.4</ele>
        <time>2020-08-15T14:01:35Z</time>
      </trkpt>
      <trkpt lat="45.35444" lon="3.3565">
        <ele>458.1</ele>
        <time>2020-08-15T14:02:00Z</time>
      </trkpt>
      <trkpt lat="45.35358" lon="3.35687">
        <ele>458.6</ele>
        <time>2020-08-15T14:02:25Z</time>
      </trkpt>
      <trkpt lat="45.35258" lon="3.35731">
        <ele>459.1</ele>
        <time>2020-08-15T14:02:50Z</time>
      </trkpt>
      <trkpt lat="45.35173" lon="3.35782">
        <ele>458.6</ele>
        <time>2020-08-15T14:09:45Z</time>
      </trkpt>
      <trkpt lat="45.35083" lon="3.35846">
        <ele>457.8</ele>
        <time>2020-08-15T14:10:10Z</time>
      </trkpt>
      <trkpt lat="45.35037" lon="3.35964">
        <ele>457.5</ele>
        <time>2020-08-15T14:10:35Z</time>
      </trkpt>
      <trkpt lat="45.34974" lon="3.36077">
        <ele>457.4</ele>
        <time>2020-08-15T14:11:00Z</time>
      </trkpt>
      <trkpt lat="45.34883" lon="3.36161">
        <ele>457.4</ele>
        <time>2020-08-15T14:11:25Z</time>
      </trkpt>
      <trkpt lat="45.34801" lon="3.36211">
        <ele>457.4</ele>
        <time>2020-08-15T14:11:45Z</time>
      </trkpt>
      <trkpt lat="45.34717" lon="3.36313">
        <ele>457.5</ele>
        <time>2020-08-15T14:12:10Z</time>
      </trkpt>
      <trkpt lat="45.34642" lon="3.3638">
        <ele>457.6</ele>
        <time>2020-08-15T14:12:30Z</time>
      </trkpt>
      <trkpt lat="45.34562" lon="3.36442">
        <ele>457.7</ele>
        <time>2020-08-15T14:12:50Z</time>
      </trkpt>
      <trkpt lat="45.34481" lon="3.36496">
        <ele>457.8</ele>
        <time>2020-08-15T14:13:10Z</time>
      </trkpt>
      <trkpt lat="45.34395" lon="3.36584">
        <ele>458.2</ele>
        <time>2020-08-15T14:13:35Z</time>
      </trkpt>
      <trkpt lat="45.34326" lon="3.36706">
        <ele>458.7</ele>
        <time>2020-08-15T14:14:00Z</time>
      </trkpt>
      <trkpt lat="45.34264" lon="3.36799">
        <ele>458.8</ele>
        <time>2020-08-15T14:14:25Z</time>
      </trkpt>
      <trkpt lat="45.34183" lon="3.36873">
        <ele>458.8</ele>
        <time>2020-08-15T14:14:45Z</time>
      </trkpt>
      <trkpt lat="45.3411" lon="3.36971">
        <ele>458.8</ele>
        <time>2020-08-15T14:15:05Z</time>
      </trkpt>
      <trkpt lat="45.34037" lon="3.37057">
        <ele>458.9</ele>
        <time>2020-08-15T14:15:25Z</time>
      </trkpt>
      <trkpt lat="45.33948" lon="3.37099">
        <ele>458.9</ele>
        <time>2020-08-15T14:15:45Z</time>
      </trkpt>
      <trkpt lat="45.33856" lon="3.37138">
        <ele>458.8</ele>
        <time>2020-08-15T14:16:05Z</time>
      </trkpt>
      <trkpt lat="45.33762" lon="3.3717">
        <ele>458.8</ele>
        <time>2020-08-15T14:16:25Z</time>
      </trkpt>
      <trkpt lat="45.33663" lon="3.37169">
        <ele>459</ele>
        <time>2020-08-15T14:16:50Z</time>
      </trkpt>
      <trkpt lat="45.33623" lon="3.3705">
        <ele>459.2</ele>
        <time>2020-08-15T14:17:15Z</time>
      </trkpt>
      <trkpt lat="45.33607" lon="3.36908">
        <ele>459.3</ele>
        <time>2020-08-15T14:17:40Z</time>
      </trkpt>
      <trkpt lat="45.33577" lon="3.36782">
        <ele>459.6</ele>
        <time>2020-08-15T14:18:32Z</time>
      </trkpt>
      <trkpt lat="45.33576" lon="3.36649">
        <ele>460.5</ele>
        <time>2020-08-15T14:19:41Z</time>
      </trkpt>
    </trkseg>
  </trk>
</gpx>